<?xml version="1.0" encoding="UTF-8" standalone="no" ?>
<gpx xmlns="http://www.topografix.com/GPX/1/1" xmlns:xsi="http://www.w3.org/2001/XMLSchema-instance" xsi:schemaLocation="http://www.topografix.com/GPX/1/1 http://www.topografix.com/GPX/1/1/gpx.xsd" version="1.1" creator="VisuGPX - https://www.visugpx.com">
  <metadata>
    <name>Moissac 11km 300m</name>
    <desc><![CDATA[Petite balade au dessus de Moissac-belle-vue]]></desc>
  </metadata>
  <trk>
    <name><![CDATA[Moissac 10,5km 250m 22-04-2022]]></name>
    <extensions>
      <line xmlns="http://www.topografix.com/GPX/gpx_style/0/2">
        <color>0000FF</color>
        <width>4</width>
      </line>
    </extensions>
    <trkseg>
      <trkpt lat="43.65589" lon="6.16235">
        <ele>584.1</ele>
        <time>2022-04-22T11:10:16Z</time>
      </trkpt>
      <trkpt lat="43.65596" lon="6.16236">
        <ele>584.2</ele>
        <time>2022-04-22T11:10:33Z</time>
      </trkpt>
      <trkpt lat="43.65603" lon="6.16234">
        <ele>584.4</ele>
        <time>2022-04-22T11:10:49Z</time>
      </trkpt>
      <trkpt lat="43.65622" lon="6.16232">
        <ele>585.2</ele>
        <time>2022-04-22T11:11:10Z</time>
      </trkpt>
      <trkpt lat="43.6563" lon="6.16243">
        <ele>585.5</ele>
        <time>2022-04-22T11:11:24Z</time>
      </trkpt>
      <trkpt lat="43.65639" lon="6.16255">
        <ele>586</ele>
        <time>2022-04-22T11:11:37Z</time>
      </trkpt>
      <trkpt lat="43.65648" lon="6.16268">
        <ele>586.3</ele>
        <time>2022-04-22T11:11:48Z</time>
      </trkpt>
      <trkpt lat="43.65655" lon="6.16279">
        <ele>586.6</ele>
        <time>2022-04-22T11:11:59Z</time>
      </trkpt>
      <trkpt lat="43.65666" lon="6.16313">
        <ele>588.2</ele>
        <time>2022-04-22T11:12:25Z</time>
      </trkpt>
      <trkpt lat="43.65669" lon="6.16328">
        <ele>589</ele>
        <time>2022-04-22T11:12:44Z</time>
      </trkpt>
      <trkpt lat="43.65668" lon="6.16348">
        <ele>589.1</ele>
        <time>2022-04-22T11:12:56Z</time>
      </trkpt>
      <trkpt lat="43.65672" lon="6.16364">
        <ele>589.5</ele>
        <time>2022-04-22T11:13:07Z</time>
      </trkpt>
      <trkpt lat="43.65675" lon="6.16379">
        <ele>590.2</ele>
        <time>2022-04-22T11:13:17Z</time>
      </trkpt>
      <trkpt lat="43.65685" lon="6.16388">
        <ele>591.2</ele>
        <time>2022-04-22T11:13:28Z</time>
      </trkpt>
      <trkpt lat="43.6569" lon="6.16403">
        <ele>592.1</ele>
        <time>2022-04-22T11:13:39Z</time>
      </trkpt>
      <trkpt lat="43.65697" lon="6.16419">
        <ele>593.2</ele>
        <time>2022-04-22T11:13:49Z</time>
      </trkpt>
      <trkpt lat="43.65699" lon="6.16436">
        <ele>593.8</ele>
        <time>2022-04-22T11:13:58Z</time>
      </trkpt>
      <trkpt lat="43.65702" lon="6.1645">
        <ele>594.3</ele>
        <time>2022-04-22T11:14:11Z</time>
      </trkpt>
      <trkpt lat="43.65706" lon="6.16466">
        <ele>594.8</ele>
        <time>2022-04-22T11:14:21Z</time>
      </trkpt>
      <trkpt lat="43.65713" lon="6.1648">
        <ele>595.6</ele>
        <time>2022-04-22T11:14:31Z</time>
      </trkpt>
      <trkpt lat="43.65719" lon="6.16491">
        <ele>596.5</ele>
        <time>2022-04-22T11:14:40Z</time>
      </trkpt>
      <trkpt lat="43.65721" lon="6.16504">
        <ele>597.1</ele>
        <time>2022-04-22T11:14:49Z</time>
      </trkpt>
      <trkpt lat="43.65723" lon="6.1652">
        <ele>597.8</ele>
        <time>2022-04-22T11:14:59Z</time>
      </trkpt>
      <trkpt lat="43.65727" lon="6.16533">
        <ele>598.6</ele>
        <time>2022-04-22T11:15:11Z</time>
      </trkpt>
      <trkpt lat="43.65733" lon="6.1655">
        <ele>599.6</ele>
        <time>2022-04-22T11:15:25Z</time>
      </trkpt>
      <trkpt lat="43.65734" lon="6.16566">
        <ele>600.4</ele>
        <time>2022-04-22T11:15:38Z</time>
      </trkpt>
      <trkpt lat="43.65734" lon="6.1658">
        <ele>601.2</ele>
        <time>2022-04-22T11:15:50Z</time>
      </trkpt>
      <trkpt lat="43.65736" lon="6.166">
        <ele>602.1</ele>
        <time>2022-04-22T11:16:01Z</time>
      </trkpt>
      <trkpt lat="43.65741" lon="6.16617">
        <ele>602.9</ele>
        <time>2022-04-22T11:16:13Z</time>
      </trkpt>
      <trkpt lat="43.65746" lon="6.16631">
        <ele>603.6</ele>
        <time>2022-04-22T11:16:25Z</time>
      </trkpt>
      <trkpt lat="43.65748" lon="6.16647">
        <ele>604.2</ele>
        <time>2022-04-22T11:16:35Z</time>
      </trkpt>
      <trkpt lat="43.65753" lon="6.1666">
        <ele>604.9</ele>
        <time>2022-04-22T11:16:46Z</time>
      </trkpt>
      <trkpt lat="43.6576" lon="6.16677">
        <ele>606</ele>
        <time>2022-04-22T11:16:57Z</time>
      </trkpt>
      <trkpt lat="43.65766" lon="6.16692">
        <ele>606.9</ele>
        <time>2022-04-22T11:17:07Z</time>
      </trkpt>
      <trkpt lat="43.65772" lon="6.16703">
        <ele>607.2</ele>
        <time>2022-04-22T11:17:17Z</time>
      </trkpt>
      <trkpt lat="43.65781" lon="6.16712">
        <ele>607.6</ele>
        <time>2022-04-22T11:17:27Z</time>
      </trkpt>
      <trkpt lat="43.65789" lon="6.16723">
        <ele>607.7</ele>
        <time>2022-04-22T11:17:36Z</time>
      </trkpt>
      <trkpt lat="43.65787" lon="6.16724">
        <ele>607.8</ele>
        <time>2022-04-22T11:18:03Z</time>
      </trkpt>
      <trkpt lat="43.65792" lon="6.16731">
        <ele>607.9</ele>
        <time>2022-04-22T11:18:34Z</time>
      </trkpt>
      <trkpt lat="43.65799" lon="6.16747">
        <ele>608.8</ele>
        <time>2022-04-22T11:18:45Z</time>
      </trkpt>
      <trkpt lat="43.65808" lon="6.16759">
        <ele>609.5</ele>
        <time>2022-04-22T11:18:55Z</time>
      </trkpt>
      <trkpt lat="43.65814" lon="6.16772">
        <ele>610.2</ele>
        <time>2022-04-22T11:19:06Z</time>
      </trkpt>
      <trkpt lat="43.6582" lon="6.16785">
        <ele>611</ele>
        <time>2022-04-22T11:19:16Z</time>
      </trkpt>
      <trkpt lat="43.65823" lon="6.16798">
        <ele>611.9</ele>
        <time>2022-04-22T11:19:25Z</time>
      </trkpt>
      <trkpt lat="43.65825" lon="6.16814">
        <ele>612.7</ele>
        <time>2022-04-22T11:19:35Z</time>
      </trkpt>
      <trkpt lat="43.65826" lon="6.16827">
        <ele>613.3</ele>
        <time>2022-04-22T11:19:44Z</time>
      </trkpt>
      <trkpt lat="43.65827" lon="6.16841">
        <ele>613.8</ele>
        <time>2022-04-22T11:19:53Z</time>
      </trkpt>
      <trkpt lat="43.65829" lon="6.16856">
        <ele>614.4</ele>
        <time>2022-04-22T11:20:02Z</time>
      </trkpt>
      <trkpt lat="43.65829" lon="6.16871">
        <ele>614.5</ele>
        <time>2022-04-22T11:20:12Z</time>
      </trkpt>
      <trkpt lat="43.65829" lon="6.16885">
        <ele>614.6</ele>
        <time>2022-04-22T11:20:21Z</time>
      </trkpt>
      <trkpt lat="43.6583" lon="6.16899">
        <ele>614.6</ele>
        <time>2022-04-22T11:20:30Z</time>
      </trkpt>
      <trkpt lat="43.65834" lon="6.16912">
        <ele>615</ele>
        <time>2022-04-22T11:20:39Z</time>
      </trkpt>
      <trkpt lat="43.65836" lon="6.16925">
        <ele>615.7</ele>
        <time>2022-04-22T11:20:49Z</time>
      </trkpt>
      <trkpt lat="43.6584" lon="6.16938">
        <ele>616.5</ele>
        <time>2022-04-22T11:20:58Z</time>
      </trkpt>
      <trkpt lat="43.65844" lon="6.16951">
        <ele>617.3</ele>
        <time>2022-04-22T11:21:07Z</time>
      </trkpt>
      <trkpt lat="43.65845" lon="6.16965">
        <ele>618</ele>
        <time>2022-04-22T11:21:16Z</time>
      </trkpt>
      <trkpt lat="43.65845" lon="6.1698">
        <ele>618.6</ele>
        <time>2022-04-22T11:21:25Z</time>
      </trkpt>
      <trkpt lat="43.65847" lon="6.16993">
        <ele>619.2</ele>
        <time>2022-04-22T11:21:33Z</time>
      </trkpt>
      <trkpt lat="43.65847" lon="6.17006">
        <ele>619.8</ele>
        <time>2022-04-22T11:21:41Z</time>
      </trkpt>
      <trkpt lat="43.65846" lon="6.1702">
        <ele>620.8</ele>
        <time>2022-04-22T11:21:50Z</time>
      </trkpt>
      <trkpt lat="43.65846" lon="6.17032">
        <ele>621.5</ele>
        <time>2022-04-22T11:22:00Z</time>
      </trkpt>
      <trkpt lat="43.65845" lon="6.17047">
        <ele>621.9</ele>
        <time>2022-04-22T11:22:10Z</time>
      </trkpt>
      <trkpt lat="43.65843" lon="6.17062">
        <ele>622.2</ele>
        <time>2022-04-22T11:22:19Z</time>
      </trkpt>
      <trkpt lat="43.65845" lon="6.17078">
        <ele>622.7</ele>
        <time>2022-04-22T11:22:29Z</time>
      </trkpt>
      <trkpt lat="43.65846" lon="6.17091">
        <ele>623.1</ele>
        <time>2022-04-22T11:22:38Z</time>
      </trkpt>
      <trkpt lat="43.65847" lon="6.17105">
        <ele>623.4</ele>
        <time>2022-04-22T11:22:47Z</time>
      </trkpt>
      <trkpt lat="43.65849" lon="6.1712">
        <ele>623.5</ele>
        <time>2022-04-22T11:22:56Z</time>
      </trkpt>
      <trkpt lat="43.65843" lon="6.17125">
        <ele>623.5</ele>
        <time>2022-04-22T11:23:06Z</time>
      </trkpt>
      <trkpt lat="43.65833" lon="6.17122">
        <ele>623.4</ele>
        <time>2022-04-22T11:23:15Z</time>
      </trkpt>
      <trkpt lat="43.65823" lon="6.17118">
        <ele>623.6</ele>
        <time>2022-04-22T11:23:24Z</time>
      </trkpt>
      <trkpt lat="43.65814" lon="6.17111">
        <ele>623.7</ele>
        <time>2022-04-22T11:23:34Z</time>
      </trkpt>
      <trkpt lat="43.65807" lon="6.17098">
        <ele>623.5</ele>
        <time>2022-04-22T11:23:43Z</time>
      </trkpt>
      <trkpt lat="43.65801" lon="6.17085">
        <ele>623.4</ele>
        <time>2022-04-22T11:23:51Z</time>
      </trkpt>
      <trkpt lat="43.65795" lon="6.17072">
        <ele>622.9</ele>
        <time>2022-04-22T11:23:59Z</time>
      </trkpt>
      <trkpt lat="43.65785" lon="6.17062">
        <ele>622.9</ele>
        <time>2022-04-22T11:24:08Z</time>
      </trkpt>
      <trkpt lat="43.65772" lon="6.1706">
        <ele>623.5</ele>
        <time>2022-04-22T11:24:20Z</time>
      </trkpt>
      <trkpt lat="43.65764" lon="6.17064">
        <ele>624</ele>
        <time>2022-04-22T11:24:29Z</time>
      </trkpt>
      <trkpt lat="43.65757" lon="6.17074">
        <ele>624.6</ele>
        <time>2022-04-22T11:24:39Z</time>
      </trkpt>
      <trkpt lat="43.65748" lon="6.17086">
        <ele>625.2</ele>
        <time>2022-04-22T11:24:50Z</time>
      </trkpt>
      <trkpt lat="43.6574" lon="6.17096">
        <ele>625.8</ele>
        <time>2022-04-22T11:25:00Z</time>
      </trkpt>
      <trkpt lat="43.6573" lon="6.17106">
        <ele>626</ele>
        <time>2022-04-22T11:25:10Z</time>
      </trkpt>
      <trkpt lat="43.6572" lon="6.17116">
        <ele>626.2</ele>
        <time>2022-04-22T11:25:21Z</time>
      </trkpt>
      <trkpt lat="43.65712" lon="6.17128">
        <ele>626.3</ele>
        <time>2022-04-22T11:25:30Z</time>
      </trkpt>
      <trkpt lat="43.65706" lon="6.17147">
        <ele>626.5</ele>
        <time>2022-04-22T11:25:39Z</time>
      </trkpt>
      <trkpt lat="43.65706" lon="6.1716">
        <ele>627.1</ele>
        <time>2022-04-22T11:25:48Z</time>
      </trkpt>
      <trkpt lat="43.65706" lon="6.17176">
        <ele>627.8</ele>
        <time>2022-04-22T11:25:56Z</time>
      </trkpt>
      <trkpt lat="43.65705" lon="6.1719">
        <ele>628.2</ele>
        <time>2022-04-22T11:26:05Z</time>
      </trkpt>
      <trkpt lat="43.65704" lon="6.17202">
        <ele>628.6</ele>
        <time>2022-04-22T11:26:14Z</time>
      </trkpt>
      <trkpt lat="43.65701" lon="6.17216">
        <ele>629</ele>
        <time>2022-04-22T11:26:23Z</time>
      </trkpt>
      <trkpt lat="43.65698" lon="6.17231">
        <ele>629.4</ele>
        <time>2022-04-22T11:26:32Z</time>
      </trkpt>
      <trkpt lat="43.65696" lon="6.17244">
        <ele>629.8</ele>
        <time>2022-04-22T11:26:40Z</time>
      </trkpt>
      <trkpt lat="43.65695" lon="6.1726">
        <ele>630</ele>
        <time>2022-04-22T11:26:50Z</time>
      </trkpt>
      <trkpt lat="43.65696" lon="6.17274">
        <ele>630</ele>
        <time>2022-04-22T11:26:58Z</time>
      </trkpt>
      <trkpt lat="43.65692" lon="6.17288">
        <ele>629.9</ele>
        <time>2022-04-22T11:27:06Z</time>
      </trkpt>
      <trkpt lat="43.65691" lon="6.17304">
        <ele>629.9</ele>
        <time>2022-04-22T11:27:14Z</time>
      </trkpt>
      <trkpt lat="43.65688" lon="6.17319">
        <ele>629.7</ele>
        <time>2022-04-22T11:27:23Z</time>
      </trkpt>
      <trkpt lat="43.65688" lon="6.17331">
        <ele>629.5</ele>
        <time>2022-04-22T11:27:31Z</time>
      </trkpt>
      <trkpt lat="43.65682" lon="6.17348">
        <ele>628.8</ele>
        <time>2022-04-22T11:27:41Z</time>
      </trkpt>
      <trkpt lat="43.65681" lon="6.17364">
        <ele>628.4</ele>
        <time>2022-04-22T11:27:51Z</time>
      </trkpt>
      <trkpt lat="43.65677" lon="6.17377">
        <ele>627.8</ele>
        <time>2022-04-22T11:28:00Z</time>
      </trkpt>
      <trkpt lat="43.65672" lon="6.17391">
        <ele>627.1</ele>
        <time>2022-04-22T11:28:11Z</time>
      </trkpt>
      <trkpt lat="43.65662" lon="6.17405">
        <ele>625.7</ele>
        <time>2022-04-22T11:28:22Z</time>
      </trkpt>
      <trkpt lat="43.65656" lon="6.1742">
        <ele>624.5</ele>
        <time>2022-04-22T11:28:32Z</time>
      </trkpt>
      <trkpt lat="43.65651" lon="6.17438">
        <ele>623.7</ele>
        <time>2022-04-22T11:28:42Z</time>
      </trkpt>
      <trkpt lat="43.65647" lon="6.17454">
        <ele>623.4</ele>
        <time>2022-04-22T11:28:50Z</time>
      </trkpt>
      <trkpt lat="43.65641" lon="6.17466">
        <ele>623</ele>
        <time>2022-04-22T11:28:58Z</time>
      </trkpt>
      <trkpt lat="43.65633" lon="6.17477">
        <ele>622.4</ele>
        <time>2022-04-22T11:29:07Z</time>
      </trkpt>
      <trkpt lat="43.65623" lon="6.17486">
        <ele>621.5</ele>
        <time>2022-04-22T11:29:19Z</time>
      </trkpt>
      <trkpt lat="43.65613" lon="6.17495">
        <ele>620.9</ele>
        <time>2022-04-22T11:29:28Z</time>
      </trkpt>
      <trkpt lat="43.65606" lon="6.17506">
        <ele>620.8</ele>
        <time>2022-04-22T11:29:37Z</time>
      </trkpt>
      <trkpt lat="43.656" lon="6.1752">
        <ele>620.8</ele>
        <time>2022-04-22T11:29:46Z</time>
      </trkpt>
      <trkpt lat="43.65599" lon="6.17535">
        <ele>621.9</ele>
        <time>2022-04-22T11:29:56Z</time>
      </trkpt>
      <trkpt lat="43.65596" lon="6.17549">
        <ele>622.8</ele>
        <time>2022-04-22T11:30:07Z</time>
      </trkpt>
      <trkpt lat="43.65596" lon="6.17563">
        <ele>623.8</ele>
        <time>2022-04-22T11:30:17Z</time>
      </trkpt>
      <trkpt lat="43.65594" lon="6.17581">
        <ele>624.5</ele>
        <time>2022-04-22T11:30:28Z</time>
      </trkpt>
      <trkpt lat="43.65597" lon="6.17597">
        <ele>625.2</ele>
        <time>2022-04-22T11:30:41Z</time>
      </trkpt>
      <trkpt lat="43.65597" lon="6.17613">
        <ele>625.5</ele>
        <time>2022-04-22T11:30:51Z</time>
      </trkpt>
      <trkpt lat="43.65594" lon="6.1763">
        <ele>625.6</ele>
        <time>2022-04-22T11:31:00Z</time>
      </trkpt>
      <trkpt lat="43.65592" lon="6.17644">
        <ele>625.5</ele>
        <time>2022-04-22T11:31:09Z</time>
      </trkpt>
      <trkpt lat="43.65593" lon="6.17658">
        <ele>625.3</ele>
        <time>2022-04-22T11:31:19Z</time>
      </trkpt>
      <trkpt lat="43.65596" lon="6.17675">
        <ele>625.1</ele>
        <time>2022-04-22T11:31:32Z</time>
      </trkpt>
      <trkpt lat="43.65597" lon="6.1769">
        <ele>624.7</ele>
        <time>2022-04-22T11:31:40Z</time>
      </trkpt>
      <trkpt lat="43.65595" lon="6.17705">
        <ele>624.1</ele>
        <time>2022-04-22T11:31:49Z</time>
      </trkpt>
      <trkpt lat="43.65592" lon="6.17721">
        <ele>623.4</ele>
        <time>2022-04-22T11:31:58Z</time>
      </trkpt>
      <trkpt lat="43.65585" lon="6.17736">
        <ele>622.6</ele>
        <time>2022-04-22T11:32:07Z</time>
      </trkpt>
      <trkpt lat="43.6558" lon="6.17749">
        <ele>621.5</ele>
        <time>2022-04-22T11:32:17Z</time>
      </trkpt>
      <trkpt lat="43.65576" lon="6.1776">
        <ele>620.7</ele>
        <time>2022-04-22T11:32:26Z</time>
      </trkpt>
      <trkpt lat="43.65574" lon="6.17776">
        <ele>620</ele>
        <time>2022-04-22T11:32:36Z</time>
      </trkpt>
      <trkpt lat="43.65573" lon="6.17791">
        <ele>619.3</ele>
        <time>2022-04-22T11:32:44Z</time>
      </trkpt>
      <trkpt lat="43.6557" lon="6.17805">
        <ele>618.6</ele>
        <time>2022-04-22T11:32:52Z</time>
      </trkpt>
      <trkpt lat="43.65565" lon="6.17812">
        <ele>617.8</ele>
        <time>2022-04-22T11:33:09Z</time>
      </trkpt>
      <trkpt lat="43.6556" lon="6.17805">
        <ele>617.5</ele>
        <time>2022-04-22T11:33:35Z</time>
      </trkpt>
      <trkpt lat="43.65564" lon="6.1782">
        <ele>617.4</ele>
        <time>2022-04-22T11:33:48Z</time>
      </trkpt>
      <trkpt lat="43.65564" lon="6.17839">
        <ele>616.7</ele>
        <time>2022-04-22T11:33:58Z</time>
      </trkpt>
      <trkpt lat="43.65561" lon="6.17853">
        <ele>615.9</ele>
        <time>2022-04-22T11:34:08Z</time>
      </trkpt>
      <trkpt lat="43.65555" lon="6.17865">
        <ele>614.8</ele>
        <time>2022-04-22T11:34:17Z</time>
      </trkpt>
      <trkpt lat="43.65553" lon="6.17881">
        <ele>613.7</ele>
        <time>2022-04-22T11:34:26Z</time>
      </trkpt>
      <trkpt lat="43.65551" lon="6.17892">
        <ele>613.1</ele>
        <time>2022-04-22T11:34:35Z</time>
      </trkpt>
      <trkpt lat="43.65547" lon="6.17907">
        <ele>612.5</ele>
        <time>2022-04-22T11:34:45Z</time>
      </trkpt>
      <trkpt lat="43.65542" lon="6.17923">
        <ele>611.5</ele>
        <time>2022-04-22T11:34:54Z</time>
      </trkpt>
      <trkpt lat="43.65539" lon="6.17937">
        <ele>610.7</ele>
        <time>2022-04-22T11:35:03Z</time>
      </trkpt>
      <trkpt lat="43.65537" lon="6.17949">
        <ele>610.3</ele>
        <time>2022-04-22T11:35:13Z</time>
      </trkpt>
      <trkpt lat="43.65534" lon="6.17963">
        <ele>609.8</ele>
        <time>2022-04-22T11:35:25Z</time>
      </trkpt>
      <trkpt lat="43.65525" lon="6.17981">
        <ele>608.4</ele>
        <time>2022-04-22T11:35:35Z</time>
      </trkpt>
      <trkpt lat="43.65524" lon="6.17998">
        <ele>608.2</ele>
        <time>2022-04-22T11:35:44Z</time>
      </trkpt>
      <trkpt lat="43.6552" lon="6.18011">
        <ele>607.9</ele>
        <time>2022-04-22T11:35:53Z</time>
      </trkpt>
      <trkpt lat="43.65518" lon="6.18025">
        <ele>608.2</ele>
        <time>2022-04-22T11:36:05Z</time>
      </trkpt>
      <trkpt lat="43.65518" lon="6.1804">
        <ele>609.2</ele>
        <time>2022-04-22T11:36:18Z</time>
      </trkpt>
      <trkpt lat="43.65515" lon="6.18054">
        <ele>609.6</ele>
        <time>2022-04-22T11:36:29Z</time>
      </trkpt>
      <trkpt lat="43.65512" lon="6.18068">
        <ele>610</ele>
        <time>2022-04-22T11:36:39Z</time>
      </trkpt>
      <trkpt lat="43.65504" lon="6.18088">
        <ele>610.7</ele>
        <time>2022-04-22T11:36:53Z</time>
      </trkpt>
      <trkpt lat="43.65499" lon="6.18104">
        <ele>611.4</ele>
        <time>2022-04-22T11:37:07Z</time>
      </trkpt>
      <trkpt lat="43.65482" lon="6.18138">
        <ele>613.3</ele>
        <time>2022-04-22T11:37:25Z</time>
      </trkpt>
      <trkpt lat="43.6548" lon="6.1815">
        <ele>613.9</ele>
        <time>2022-04-22T11:37:35Z</time>
      </trkpt>
      <trkpt lat="43.65461" lon="6.18173">
        <ele>615.5</ele>
        <time>2022-04-22T11:37:55Z</time>
      </trkpt>
      <trkpt lat="43.65453" lon="6.18186">
        <ele>616.4</ele>
        <time>2022-04-22T11:38:06Z</time>
      </trkpt>
      <trkpt lat="43.65447" lon="6.18198">
        <ele>617.2</ele>
        <time>2022-04-22T11:38:19Z</time>
      </trkpt>
      <trkpt lat="43.65437" lon="6.18205">
        <ele>617.9</ele>
        <time>2022-04-22T11:38:30Z</time>
      </trkpt>
      <trkpt lat="43.65428" lon="6.1821">
        <ele>618.4</ele>
        <time>2022-04-22T11:38:40Z</time>
      </trkpt>
      <trkpt lat="43.6542" lon="6.18218">
        <ele>618.8</ele>
        <time>2022-04-22T11:38:50Z</time>
      </trkpt>
      <trkpt lat="43.65407" lon="6.18229">
        <ele>619.1</ele>
        <time>2022-04-22T11:39:02Z</time>
      </trkpt>
      <trkpt lat="43.65394" lon="6.18247">
        <ele>620.6</ele>
        <time>2022-04-22T11:39:15Z</time>
      </trkpt>
      <trkpt lat="43.65384" lon="6.18254">
        <ele>620.8</ele>
        <time>2022-04-22T11:39:25Z</time>
      </trkpt>
      <trkpt lat="43.65377" lon="6.18261">
        <ele>620.9</ele>
        <time>2022-04-22T11:39:35Z</time>
      </trkpt>
      <trkpt lat="43.65369" lon="6.18273">
        <ele>621.6</ele>
        <time>2022-04-22T11:39:46Z</time>
      </trkpt>
      <trkpt lat="43.65355" lon="6.18294">
        <ele>622.2</ele>
        <time>2022-04-22T11:40:01Z</time>
      </trkpt>
      <trkpt lat="43.65346" lon="6.18304">
        <ele>622.3</ele>
        <time>2022-04-22T11:40:11Z</time>
      </trkpt>
      <trkpt lat="43.65335" lon="6.18318">
        <ele>622.9</ele>
        <time>2022-04-22T11:40:25Z</time>
      </trkpt>
      <trkpt lat="43.65329" lon="6.18326">
        <ele>623.1</ele>
        <time>2022-04-22T11:40:38Z</time>
      </trkpt>
      <trkpt lat="43.65329" lon="6.18323">
        <ele>622.8</ele>
        <time>2022-04-22T11:41:15Z</time>
      </trkpt>
      <trkpt lat="43.65332" lon="6.18324">
        <ele>623.2</ele>
        <time>2022-04-22T11:41:44Z</time>
      </trkpt>
      <trkpt lat="43.65332" lon="6.18309">
        <ele>621.9</ele>
        <time>2022-04-22T11:42:01Z</time>
      </trkpt>
      <trkpt lat="43.65323" lon="6.18302">
        <ele>619</ele>
        <time>2022-04-22T11:42:16Z</time>
      </trkpt>
      <trkpt lat="43.65319" lon="6.18305">
        <ele>618.7</ele>
        <time>2022-04-22T11:42:55Z</time>
      </trkpt>
      <trkpt lat="43.65314" lon="6.18302">
        <ele>616.9</ele>
        <time>2022-04-22T11:43:24Z</time>
      </trkpt>
      <trkpt lat="43.65321" lon="6.18305">
        <ele>619.2</ele>
        <time>2022-04-22T11:43:46Z</time>
      </trkpt>
      <trkpt lat="43.65333" lon="6.18314">
        <ele>622.6</ele>
        <time>2022-04-22T11:44:01Z</time>
      </trkpt>
      <trkpt lat="43.65331" lon="6.18328">
        <ele>623.4</ele>
        <time>2022-04-22T11:44:13Z</time>
      </trkpt>
      <trkpt lat="43.65326" lon="6.18339">
        <ele>623.8</ele>
        <time>2022-04-22T11:44:23Z</time>
      </trkpt>
      <trkpt lat="43.6532" lon="6.18352">
        <ele>624.2</ele>
        <time>2022-04-22T11:44:32Z</time>
      </trkpt>
      <trkpt lat="43.65316" lon="6.18364">
        <ele>624.6</ele>
        <time>2022-04-22T11:44:41Z</time>
      </trkpt>
      <trkpt lat="43.6531" lon="6.18375">
        <ele>624.8</ele>
        <time>2022-04-22T11:44:51Z</time>
      </trkpt>
      <trkpt lat="43.65299" lon="6.18383">
        <ele>625</ele>
        <time>2022-04-22T11:45:03Z</time>
      </trkpt>
      <trkpt lat="43.65286" lon="6.18392">
        <ele>625.7</ele>
        <time>2022-04-22T11:45:14Z</time>
      </trkpt>
      <trkpt lat="43.65275" lon="6.18399">
        <ele>625.9</ele>
        <time>2022-04-22T11:45:24Z</time>
      </trkpt>
      <trkpt lat="43.65264" lon="6.18405">
        <ele>625.9</ele>
        <time>2022-04-22T11:45:33Z</time>
      </trkpt>
      <trkpt lat="43.65256" lon="6.18414">
        <ele>626.6</ele>
        <time>2022-04-22T11:45:42Z</time>
      </trkpt>
      <trkpt lat="43.65246" lon="6.18421">
        <ele>626.9</ele>
        <time>2022-04-22T11:45:51Z</time>
      </trkpt>
      <trkpt lat="43.65235" lon="6.18426">
        <ele>626.4</ele>
        <time>2022-04-22T11:46:01Z</time>
      </trkpt>
      <trkpt lat="43.65225" lon="6.18433">
        <ele>626.3</ele>
        <time>2022-04-22T11:46:10Z</time>
      </trkpt>
      <trkpt lat="43.65215" lon="6.18442">
        <ele>626.1</ele>
        <time>2022-04-22T11:46:19Z</time>
      </trkpt>
      <trkpt lat="43.65206" lon="6.18452">
        <ele>625.5</ele>
        <time>2022-04-22T11:46:27Z</time>
      </trkpt>
      <trkpt lat="43.65199" lon="6.18461">
        <ele>625</ele>
        <time>2022-04-22T11:46:36Z</time>
      </trkpt>
      <trkpt lat="43.65191" lon="6.18475">
        <ele>624.5</ele>
        <time>2022-04-22T11:46:44Z</time>
      </trkpt>
      <trkpt lat="43.65185" lon="6.18488">
        <ele>624.1</ele>
        <time>2022-04-22T11:46:52Z</time>
      </trkpt>
      <trkpt lat="43.65182" lon="6.185">
        <ele>624.2</ele>
        <time>2022-04-22T11:47:00Z</time>
      </trkpt>
      <trkpt lat="43.65178" lon="6.18507">
        <ele>623.7</ele>
        <time>2022-04-22T11:48:11Z</time>
      </trkpt>
      <trkpt lat="43.65177" lon="6.18524">
        <ele>623.5</ele>
        <time>2022-04-22T11:48:29Z</time>
      </trkpt>
      <trkpt lat="43.65178" lon="6.1854">
        <ele>623.4</ele>
        <time>2022-04-22T11:48:42Z</time>
      </trkpt>
      <trkpt lat="43.65176" lon="6.18555">
        <ele>623</ele>
        <time>2022-04-22T11:48:54Z</time>
      </trkpt>
      <trkpt lat="43.65183" lon="6.18565">
        <ele>623.4</ele>
        <time>2022-04-22T11:49:04Z</time>
      </trkpt>
      <trkpt lat="43.65189" lon="6.18575">
        <ele>623.8</ele>
        <time>2022-04-22T11:49:14Z</time>
      </trkpt>
      <trkpt lat="43.65193" lon="6.18587">
        <ele>623.6</ele>
        <time>2022-04-22T11:49:24Z</time>
      </trkpt>
      <trkpt lat="43.65198" lon="6.18599">
        <ele>622.8</ele>
        <time>2022-04-22T11:49:37Z</time>
      </trkpt>
      <trkpt lat="43.65204" lon="6.1861">
        <ele>622.1</ele>
        <time>2022-04-22T11:49:50Z</time>
      </trkpt>
      <trkpt lat="43.65209" lon="6.18623">
        <ele>621.1</ele>
        <time>2022-04-22T11:50:02Z</time>
      </trkpt>
      <trkpt lat="43.65216" lon="6.18629">
        <ele>620.7</ele>
        <time>2022-04-22T11:50:12Z</time>
      </trkpt>
      <trkpt lat="43.65228" lon="6.18637">
        <ele>620</ele>
        <time>2022-04-22T11:50:25Z</time>
      </trkpt>
      <trkpt lat="43.65249" lon="6.18658">
        <ele>617.6</ele>
        <time>2022-04-22T11:50:45Z</time>
      </trkpt>
      <trkpt lat="43.65257" lon="6.18671">
        <ele>616.6</ele>
        <time>2022-04-22T11:50:55Z</time>
      </trkpt>
      <trkpt lat="43.65264" lon="6.1868">
        <ele>616</ele>
        <time>2022-04-22T11:51:05Z</time>
      </trkpt>
      <trkpt lat="43.65274" lon="6.18694">
        <ele>615.1</ele>
        <time>2022-04-22T11:51:21Z</time>
      </trkpt>
      <trkpt lat="43.65283" lon="6.18701">
        <ele>614.7</ele>
        <time>2022-04-22T11:51:31Z</time>
      </trkpt>
      <trkpt lat="43.65307" lon="6.18729">
        <ele>611.6</ele>
        <time>2022-04-22T11:51:54Z</time>
      </trkpt>
      <trkpt lat="43.65319" lon="6.18739">
        <ele>610.2</ele>
        <time>2022-04-22T11:52:06Z</time>
      </trkpt>
      <trkpt lat="43.65326" lon="6.1874">
        <ele>609.4</ele>
        <time>2022-04-22T11:52:24Z</time>
      </trkpt>
      <trkpt lat="43.65334" lon="6.18742">
        <ele>608.5</ele>
        <time>2022-04-22T11:52:47Z</time>
      </trkpt>
      <trkpt lat="43.65341" lon="6.18751">
        <ele>607.2</ele>
        <time>2022-04-22T11:52:59Z</time>
      </trkpt>
      <trkpt lat="43.65343" lon="6.18759">
        <ele>606.6</ele>
        <time>2022-04-22T11:53:11Z</time>
      </trkpt>
      <trkpt lat="43.65353" lon="6.18769">
        <ele>605.1</ele>
        <time>2022-04-22T11:53:24Z</time>
      </trkpt>
      <trkpt lat="43.65364" lon="6.18779">
        <ele>603.7</ele>
        <time>2022-04-22T11:53:35Z</time>
      </trkpt>
      <trkpt lat="43.65372" lon="6.18791">
        <ele>602.7</ele>
        <time>2022-04-22T11:53:46Z</time>
      </trkpt>
      <trkpt lat="43.65378" lon="6.18801">
        <ele>601.9</ele>
        <time>2022-04-22T11:53:58Z</time>
      </trkpt>
      <trkpt lat="43.65388" lon="6.18812">
        <ele>600.9</ele>
        <time>2022-04-22T11:54:12Z</time>
      </trkpt>
      <trkpt lat="43.65396" lon="6.18824">
        <ele>599.6</ele>
        <time>2022-04-22T11:54:23Z</time>
      </trkpt>
      <trkpt lat="43.65407" lon="6.18831">
        <ele>598.1</ele>
        <time>2022-04-22T11:54:34Z</time>
      </trkpt>
      <trkpt lat="43.65415" lon="6.18841">
        <ele>597.2</ele>
        <time>2022-04-22T11:54:44Z</time>
      </trkpt>
      <trkpt lat="43.65425" lon="6.18849">
        <ele>595.7</ele>
        <time>2022-04-22T11:54:55Z</time>
      </trkpt>
      <trkpt lat="43.65432" lon="6.18856">
        <ele>594.4</ele>
        <time>2022-04-22T11:55:05Z</time>
      </trkpt>
      <trkpt lat="43.65441" lon="6.18868">
        <ele>593</ele>
        <time>2022-04-22T11:55:17Z</time>
      </trkpt>
      <trkpt lat="43.65448" lon="6.18878">
        <ele>592.8</ele>
        <time>2022-04-22T11:55:28Z</time>
      </trkpt>
      <trkpt lat="43.65455" lon="6.18886">
        <ele>592.7</ele>
        <time>2022-04-22T11:55:40Z</time>
      </trkpt>
      <trkpt lat="43.65466" lon="6.18896">
        <ele>591.3</ele>
        <time>2022-04-22T11:55:51Z</time>
      </trkpt>
      <trkpt lat="43.6547" lon="6.18906">
        <ele>590</ele>
        <time>2022-04-22T11:56:08Z</time>
      </trkpt>
      <trkpt lat="43.6548" lon="6.18916">
        <ele>588.8</ele>
        <time>2022-04-22T11:56:21Z</time>
      </trkpt>
      <trkpt lat="43.65488" lon="6.18919">
        <ele>588.5</ele>
        <time>2022-04-22T11:56:36Z</time>
      </trkpt>
      <trkpt lat="43.65491" lon="6.18932">
        <ele>588.7</ele>
        <time>2022-04-22T11:56:59Z</time>
      </trkpt>
      <trkpt lat="43.655" lon="6.18937">
        <ele>588.7</ele>
        <time>2022-04-22T11:57:11Z</time>
      </trkpt>
      <trkpt lat="43.6551" lon="6.18945">
        <ele>590.4</ele>
        <time>2022-04-22T11:57:23Z</time>
      </trkpt>
      <trkpt lat="43.65507" lon="6.18936">
        <ele>589.7</ele>
        <time>2022-04-22T11:57:48Z</time>
      </trkpt>
      <trkpt lat="43.65517" lon="6.18954">
        <ele>591.9</ele>
        <time>2022-04-22T11:58:01Z</time>
      </trkpt>
      <trkpt lat="43.65525" lon="6.18966">
        <ele>593.5</ele>
        <time>2022-04-22T11:58:19Z</time>
      </trkpt>
      <trkpt lat="43.65533" lon="6.18975">
        <ele>594.6</ele>
        <time>2022-04-22T11:58:36Z</time>
      </trkpt>
      <trkpt lat="43.6554" lon="6.18987">
        <ele>595.5</ele>
        <time>2022-04-22T11:58:47Z</time>
      </trkpt>
      <trkpt lat="43.65548" lon="6.18997">
        <ele>596.8</ele>
        <time>2022-04-22T11:59:00Z</time>
      </trkpt>
      <trkpt lat="43.65555" lon="6.19004">
        <ele>597.7</ele>
        <time>2022-04-22T11:59:15Z</time>
      </trkpt>
      <trkpt lat="43.65565" lon="6.19011">
        <ele>597.3</ele>
        <time>2022-04-22T11:59:26Z</time>
      </trkpt>
      <trkpt lat="43.65573" lon="6.19019">
        <ele>596.3</ele>
        <time>2022-04-22T11:59:38Z</time>
      </trkpt>
      <trkpt lat="43.65581" lon="6.19031">
        <ele>595.1</ele>
        <time>2022-04-22T11:59:52Z</time>
      </trkpt>
      <trkpt lat="43.65588" lon="6.19044">
        <ele>595.8</ele>
        <time>2022-04-22T12:00:06Z</time>
      </trkpt>
      <trkpt lat="43.65594" lon="6.1905">
        <ele>596.3</ele>
        <time>2022-04-22T12:00:21Z</time>
      </trkpt>
      <trkpt lat="43.65608" lon="6.19061">
        <ele>597.5</ele>
        <time>2022-04-22T12:00:36Z</time>
      </trkpt>
      <trkpt lat="43.65616" lon="6.19072">
        <ele>598.9</ele>
        <time>2022-04-22T12:00:52Z</time>
      </trkpt>
      <trkpt lat="43.65623" lon="6.19085">
        <ele>600.4</ele>
        <time>2022-04-22T12:01:07Z</time>
      </trkpt>
      <trkpt lat="43.65633" lon="6.19095">
        <ele>601.1</ele>
        <time>2022-04-22T12:01:22Z</time>
      </trkpt>
      <trkpt lat="43.65645" lon="6.19106">
        <ele>602.1</ele>
        <time>2022-04-22T12:01:33Z</time>
      </trkpt>
      <trkpt lat="43.65654" lon="6.19116">
        <ele>602.6</ele>
        <time>2022-04-22T12:01:45Z</time>
      </trkpt>
      <trkpt lat="43.6566" lon="6.19127">
        <ele>603.2</ele>
        <time>2022-04-22T12:01:56Z</time>
      </trkpt>
      <trkpt lat="43.65668" lon="6.19134">
        <ele>603.9</ele>
        <time>2022-04-22T12:02:10Z</time>
      </trkpt>
      <trkpt lat="43.65681" lon="6.19147">
        <ele>604.5</ele>
        <time>2022-04-22T12:02:22Z</time>
      </trkpt>
      <trkpt lat="43.65687" lon="6.19157">
        <ele>604.7</ele>
        <time>2022-04-22T12:02:31Z</time>
      </trkpt>
      <trkpt lat="43.65695" lon="6.19164">
        <ele>605</ele>
        <time>2022-04-22T12:02:41Z</time>
      </trkpt>
      <trkpt lat="43.65704" lon="6.1917">
        <ele>605.8</ele>
        <time>2022-04-22T12:02:51Z</time>
      </trkpt>
      <trkpt lat="43.65706" lon="6.19178">
        <ele>606.2</ele>
        <time>2022-04-22T12:03:07Z</time>
      </trkpt>
      <trkpt lat="43.65704" lon="6.19176">
        <ele>606</ele>
        <time>2022-04-22T12:03:31Z</time>
      </trkpt>
      <trkpt lat="43.65708" lon="6.19184">
        <ele>606.6</ele>
        <time>2022-04-22T12:04:02Z</time>
      </trkpt>
      <trkpt lat="43.65703" lon="6.19186">
        <ele>606.3</ele>
        <time>2022-04-22T12:05:13Z</time>
      </trkpt>
      <trkpt lat="43.65709" lon="6.19187">
        <ele>606.8</ele>
        <time>2022-04-22T12:05:36Z</time>
      </trkpt>
      <trkpt lat="43.65725" lon="6.19198">
        <ele>608.2</ele>
        <time>2022-04-22T12:05:49Z</time>
      </trkpt>
      <trkpt lat="43.65733" lon="6.19209">
        <ele>608.7</ele>
        <time>2022-04-22T12:05:59Z</time>
      </trkpt>
      <trkpt lat="43.6574" lon="6.19218">
        <ele>609.3</ele>
        <time>2022-04-22T12:06:10Z</time>
      </trkpt>
      <trkpt lat="43.65749" lon="6.19229">
        <ele>609.9</ele>
        <time>2022-04-22T12:06:22Z</time>
      </trkpt>
      <trkpt lat="43.65756" lon="6.19241">
        <ele>610.4</ele>
        <time>2022-04-22T12:06:35Z</time>
      </trkpt>
      <trkpt lat="43.65767" lon="6.19251">
        <ele>611.3</ele>
        <time>2022-04-22T12:06:48Z</time>
      </trkpt>
      <trkpt lat="43.65777" lon="6.19259">
        <ele>612.3</ele>
        <time>2022-04-22T12:06:59Z</time>
      </trkpt>
      <trkpt lat="43.65783" lon="6.1927">
        <ele>613.1</ele>
        <time>2022-04-22T12:07:11Z</time>
      </trkpt>
      <trkpt lat="43.65791" lon="6.19281">
        <ele>614</ele>
        <time>2022-04-22T12:07:24Z</time>
      </trkpt>
      <trkpt lat="43.65801" lon="6.1929">
        <ele>614.7</ele>
        <time>2022-04-22T12:07:37Z</time>
      </trkpt>
      <trkpt lat="43.65809" lon="6.19295">
        <ele>615.3</ele>
        <time>2022-04-22T12:07:50Z</time>
      </trkpt>
      <trkpt lat="43.65819" lon="6.19298">
        <ele>616</ele>
        <time>2022-04-22T12:08:04Z</time>
      </trkpt>
      <trkpt lat="43.65821" lon="6.1929">
        <ele>616.1</ele>
        <time>2022-04-22T12:08:32Z</time>
      </trkpt>
      <trkpt lat="43.6583" lon="6.1929">
        <ele>616.8</ele>
        <time>2022-04-22T12:08:47Z</time>
      </trkpt>
      <trkpt lat="43.6584" lon="6.19294">
        <ele>617.7</ele>
        <time>2022-04-22T12:08:59Z</time>
      </trkpt>
      <trkpt lat="43.65849" lon="6.1929">
        <ele>618.7</ele>
        <time>2022-04-22T12:09:12Z</time>
      </trkpt>
      <trkpt lat="43.65857" lon="6.19299">
        <ele>619.6</ele>
        <time>2022-04-22T12:09:24Z</time>
      </trkpt>
      <trkpt lat="43.65866" lon="6.19301">
        <ele>620.4</ele>
        <time>2022-04-22T12:09:53Z</time>
      </trkpt>
      <trkpt lat="43.65871" lon="6.19311">
        <ele>620.6</ele>
        <time>2022-04-22T12:10:09Z</time>
      </trkpt>
      <trkpt lat="43.65877" lon="6.19309">
        <ele>621.1</ele>
        <time>2022-04-22T12:10:35Z</time>
      </trkpt>
      <trkpt lat="43.65887" lon="6.19311">
        <ele>621.9</ele>
        <time>2022-04-22T12:10:49Z</time>
      </trkpt>
      <trkpt lat="43.65899" lon="6.19314">
        <ele>622.7</ele>
        <time>2022-04-22T12:11:02Z</time>
      </trkpt>
      <trkpt lat="43.65907" lon="6.19319">
        <ele>623.3</ele>
        <time>2022-04-22T12:11:16Z</time>
      </trkpt>
      <trkpt lat="43.65914" lon="6.19319">
        <ele>623.8</ele>
        <time>2022-04-22T12:11:35Z</time>
      </trkpt>
      <trkpt lat="43.65924" lon="6.19315">
        <ele>624.5</ele>
        <time>2022-04-22T12:11:46Z</time>
      </trkpt>
      <trkpt lat="43.65932" lon="6.19308">
        <ele>625.1</ele>
        <time>2022-04-22T12:11:56Z</time>
      </trkpt>
      <trkpt lat="43.65941" lon="6.19304">
        <ele>625.7</ele>
        <time>2022-04-22T12:12:06Z</time>
      </trkpt>
      <trkpt lat="43.65951" lon="6.19299">
        <ele>626.6</ele>
        <time>2022-04-22T12:12:20Z</time>
      </trkpt>
      <trkpt lat="43.6596" lon="6.19297">
        <ele>627.5</ele>
        <time>2022-04-22T12:12:31Z</time>
      </trkpt>
      <trkpt lat="43.65968" lon="6.19296">
        <ele>628.3</ele>
        <time>2022-04-22T12:12:42Z</time>
      </trkpt>
      <trkpt lat="43.65981" lon="6.19293">
        <ele>629.2</ele>
        <time>2022-04-22T12:12:55Z</time>
      </trkpt>
      <trkpt lat="43.65991" lon="6.1929">
        <ele>629.8</ele>
        <time>2022-04-22T12:13:07Z</time>
      </trkpt>
      <trkpt lat="43.66" lon="6.19283">
        <ele>630.2</ele>
        <time>2022-04-22T12:13:19Z</time>
      </trkpt>
      <trkpt lat="43.66011" lon="6.1928">
        <ele>631.2</ele>
        <time>2022-04-22T12:13:28Z</time>
      </trkpt>
      <trkpt lat="43.66023" lon="6.19278">
        <ele>632.4</ele>
        <time>2022-04-22T12:13:39Z</time>
      </trkpt>
      <trkpt lat="43.66034" lon="6.19272">
        <ele>633</ele>
        <time>2022-04-22T12:13:50Z</time>
      </trkpt>
      <trkpt lat="43.66044" lon="6.19269">
        <ele>633.4</ele>
        <time>2022-04-22T12:14:00Z</time>
      </trkpt>
      <trkpt lat="43.66053" lon="6.19264">
        <ele>633.9</ele>
        <time>2022-04-22T12:14:09Z</time>
      </trkpt>
      <trkpt lat="43.66062" lon="6.1926">
        <ele>634.6</ele>
        <time>2022-04-22T12:14:19Z</time>
      </trkpt>
      <trkpt lat="43.66072" lon="6.19258">
        <ele>635.3</ele>
        <time>2022-04-22T12:14:28Z</time>
      </trkpt>
      <trkpt lat="43.66081" lon="6.19257">
        <ele>636</ele>
        <time>2022-04-22T12:14:37Z</time>
      </trkpt>
      <trkpt lat="43.6609" lon="6.19257">
        <ele>636.8</ele>
        <time>2022-04-22T12:14:46Z</time>
      </trkpt>
      <trkpt lat="43.66099" lon="6.19256">
        <ele>637.5</ele>
        <time>2022-04-22T12:14:55Z</time>
      </trkpt>
      <trkpt lat="43.66109" lon="6.19255">
        <ele>638.2</ele>
        <time>2022-04-22T12:15:04Z</time>
      </trkpt>
      <trkpt lat="43.66119" lon="6.19255">
        <ele>638.9</ele>
        <time>2022-04-22T12:15:14Z</time>
      </trkpt>
      <trkpt lat="43.66131" lon="6.19255">
        <ele>639.7</ele>
        <time>2022-04-22T12:15:24Z</time>
      </trkpt>
      <trkpt lat="43.66141" lon="6.19253">
        <ele>640.4</ele>
        <time>2022-04-22T12:15:32Z</time>
      </trkpt>
      <trkpt lat="43.66151" lon="6.19254">
        <ele>641.2</ele>
        <time>2022-04-22T12:15:40Z</time>
      </trkpt>
      <trkpt lat="43.6616" lon="6.19254">
        <ele>641.8</ele>
        <time>2022-04-22T12:15:50Z</time>
      </trkpt>
      <trkpt lat="43.66166" lon="6.19253">
        <ele>642.1</ele>
        <time>2022-04-22T12:16:10Z</time>
      </trkpt>
      <trkpt lat="43.66175" lon="6.19252">
        <ele>643.1</ele>
        <time>2022-04-22T12:16:21Z</time>
      </trkpt>
      <trkpt lat="43.66184" lon="6.19247">
        <ele>643.8</ele>
        <time>2022-04-22T12:16:34Z</time>
      </trkpt>
      <trkpt lat="43.66191" lon="6.19236">
        <ele>644.2</ele>
        <time>2022-04-22T12:16:44Z</time>
      </trkpt>
      <trkpt lat="43.662" lon="6.19226">
        <ele>644.7</ele>
        <time>2022-04-22T12:16:55Z</time>
      </trkpt>
      <trkpt lat="43.66209" lon="6.19218">
        <ele>645.4</ele>
        <time>2022-04-22T12:17:04Z</time>
      </trkpt>
      <trkpt lat="43.66215" lon="6.19207">
        <ele>645.2</ele>
        <time>2022-04-22T12:17:13Z</time>
      </trkpt>
      <trkpt lat="43.66221" lon="6.19197">
        <ele>645.1</ele>
        <time>2022-04-22T12:17:22Z</time>
      </trkpt>
      <trkpt lat="43.66228" lon="6.19186">
        <ele>645.4</ele>
        <time>2022-04-22T12:17:31Z</time>
      </trkpt>
      <trkpt lat="43.66236" lon="6.19177">
        <ele>645.7</ele>
        <time>2022-04-22T12:17:40Z</time>
      </trkpt>
      <trkpt lat="43.66242" lon="6.19167">
        <ele>645.4</ele>
        <time>2022-04-22T12:17:50Z</time>
      </trkpt>
      <trkpt lat="43.66248" lon="6.19158">
        <ele>645.2</ele>
        <time>2022-04-22T12:18:14Z</time>
      </trkpt>
      <trkpt lat="43.66254" lon="6.19149">
        <ele>645.1</ele>
        <time>2022-04-22T12:18:22Z</time>
      </trkpt>
      <trkpt lat="43.66262" lon="6.19139">
        <ele>645.3</ele>
        <time>2022-04-22T12:18:30Z</time>
      </trkpt>
      <trkpt lat="43.6627" lon="6.1913">
        <ele>645.6</ele>
        <time>2022-04-22T12:18:39Z</time>
      </trkpt>
      <trkpt lat="43.66277" lon="6.19121">
        <ele>645.7</ele>
        <time>2022-04-22T12:18:47Z</time>
      </trkpt>
      <trkpt lat="43.66286" lon="6.19113">
        <ele>645.7</ele>
        <time>2022-04-22T12:18:56Z</time>
      </trkpt>
      <trkpt lat="43.6629" lon="6.19103">
        <ele>645.6</ele>
        <time>2022-04-22T12:19:06Z</time>
      </trkpt>
      <trkpt lat="43.66291" lon="6.19105">
        <ele>645.7</ele>
        <time>2022-04-22T12:19:33Z</time>
      </trkpt>
      <trkpt lat="43.663" lon="6.19092">
        <ele>646</ele>
        <time>2022-04-22T12:19:42Z</time>
      </trkpt>
      <trkpt lat="43.66307" lon="6.19082">
        <ele>646.1</ele>
        <time>2022-04-22T12:19:51Z</time>
      </trkpt>
      <trkpt lat="43.66315" lon="6.19073">
        <ele>646.9</ele>
        <time>2022-04-22T12:20:00Z</time>
      </trkpt>
      <trkpt lat="43.66325" lon="6.19058">
        <ele>647.4</ele>
        <time>2022-04-22T12:20:10Z</time>
      </trkpt>
      <trkpt lat="43.66332" lon="6.19047">
        <ele>647.6</ele>
        <time>2022-04-22T12:20:19Z</time>
      </trkpt>
      <trkpt lat="43.6634" lon="6.19038">
        <ele>648</ele>
        <time>2022-04-22T12:20:27Z</time>
      </trkpt>
      <trkpt lat="43.66347" lon="6.19029">
        <ele>648.1</ele>
        <time>2022-04-22T12:20:36Z</time>
      </trkpt>
      <trkpt lat="43.66354" lon="6.19019">
        <ele>648.1</ele>
        <time>2022-04-22T12:20:44Z</time>
      </trkpt>
      <trkpt lat="43.66359" lon="6.1901">
        <ele>648.2</ele>
        <time>2022-04-22T12:20:52Z</time>
      </trkpt>
      <trkpt lat="43.66367" lon="6.19">
        <ele>648.7</ele>
        <time>2022-04-22T12:21:01Z</time>
      </trkpt>
      <trkpt lat="43.66376" lon="6.1899">
        <ele>649</ele>
        <time>2022-04-22T12:21:10Z</time>
      </trkpt>
      <trkpt lat="43.66384" lon="6.18982">
        <ele>649.3</ele>
        <time>2022-04-22T12:21:18Z</time>
      </trkpt>
      <trkpt lat="43.66391" lon="6.18972">
        <ele>649.2</ele>
        <time>2022-04-22T12:21:27Z</time>
      </trkpt>
      <trkpt lat="43.66398" lon="6.18963">
        <ele>649.7</ele>
        <time>2022-04-22T12:21:36Z</time>
      </trkpt>
      <trkpt lat="43.66406" lon="6.18951">
        <ele>650.1</ele>
        <time>2022-04-22T12:21:46Z</time>
      </trkpt>
      <trkpt lat="43.66414" lon="6.18943">
        <ele>650.7</ele>
        <time>2022-04-22T12:21:55Z</time>
      </trkpt>
      <trkpt lat="43.66422" lon="6.18935">
        <ele>651</ele>
        <time>2022-04-22T12:22:04Z</time>
      </trkpt>
      <trkpt lat="43.66428" lon="6.18924">
        <ele>651.1</ele>
        <time>2022-04-22T12:22:13Z</time>
      </trkpt>
      <trkpt lat="43.66436" lon="6.18915">
        <ele>651.4</ele>
        <time>2022-04-22T12:22:23Z</time>
      </trkpt>
      <trkpt lat="43.66444" lon="6.18905">
        <ele>652</ele>
        <time>2022-04-22T12:22:33Z</time>
      </trkpt>
      <trkpt lat="43.66453" lon="6.18894">
        <ele>652.7</ele>
        <time>2022-04-22T12:22:43Z</time>
      </trkpt>
      <trkpt lat="43.66461" lon="6.18885">
        <ele>653</ele>
        <time>2022-04-22T12:22:53Z</time>
      </trkpt>
      <trkpt lat="43.66469" lon="6.18875">
        <ele>653.3</ele>
        <time>2022-04-22T12:23:15Z</time>
      </trkpt>
      <trkpt lat="43.66473" lon="6.18888">
        <ele>654.1</ele>
        <time>2022-04-22T12:24:48Z</time>
      </trkpt>
      <trkpt lat="43.66471" lon="6.18901">
        <ele>654.3</ele>
        <time>2022-04-22T12:24:57Z</time>
      </trkpt>
      <trkpt lat="43.66469" lon="6.18914">
        <ele>654.6</ele>
        <time>2022-04-22T12:25:06Z</time>
      </trkpt>
      <trkpt lat="43.66466" lon="6.18928">
        <ele>654.8</ele>
        <time>2022-04-22T12:25:15Z</time>
      </trkpt>
      <trkpt lat="43.66464" lon="6.18944">
        <ele>655.1</ele>
        <time>2022-04-22T12:25:26Z</time>
      </trkpt>
      <trkpt lat="43.66464" lon="6.18958">
        <ele>655.6</ele>
        <time>2022-04-22T12:25:36Z</time>
      </trkpt>
      <trkpt lat="43.66462" lon="6.18974">
        <ele>656</ele>
        <time>2022-04-22T12:25:45Z</time>
      </trkpt>
      <trkpt lat="43.66459" lon="6.18988">
        <ele>656.4</ele>
        <time>2022-04-22T12:25:54Z</time>
      </trkpt>
      <trkpt lat="43.66458" lon="6.19">
        <ele>657</ele>
        <time>2022-04-22T12:26:03Z</time>
      </trkpt>
      <trkpt lat="43.66456" lon="6.19016">
        <ele>657.7</ele>
        <time>2022-04-22T12:26:13Z</time>
      </trkpt>
      <trkpt lat="43.66452" lon="6.19031">
        <ele>657.9</ele>
        <time>2022-04-22T12:26:22Z</time>
      </trkpt>
      <trkpt lat="43.6645" lon="6.19044">
        <ele>658.2</ele>
        <time>2022-04-22T12:26:31Z</time>
      </trkpt>
      <trkpt lat="43.66445" lon="6.19058">
        <ele>658.1</ele>
        <time>2022-04-22T12:26:40Z</time>
      </trkpt>
      <trkpt lat="43.66442" lon="6.19069">
        <ele>658.3</ele>
        <time>2022-04-22T12:26:48Z</time>
      </trkpt>
      <trkpt lat="43.66438" lon="6.19083">
        <ele>658.5</ele>
        <time>2022-04-22T12:26:57Z</time>
      </trkpt>
      <trkpt lat="43.66435" lon="6.19096">
        <ele>658.6</ele>
        <time>2022-04-22T12:27:06Z</time>
      </trkpt>
      <trkpt lat="43.66431" lon="6.19111">
        <ele>658.6</ele>
        <time>2022-04-22T12:27:15Z</time>
      </trkpt>
      <trkpt lat="43.6643" lon="6.19127">
        <ele>658.7</ele>
        <time>2022-04-22T12:27:25Z</time>
      </trkpt>
      <trkpt lat="43.66426" lon="6.19141">
        <ele>658.8</ele>
        <time>2022-04-22T12:27:34Z</time>
      </trkpt>
      <trkpt lat="43.66422" lon="6.19153">
        <ele>659</ele>
        <time>2022-04-22T12:27:43Z</time>
      </trkpt>
      <trkpt lat="43.66417" lon="6.19167">
        <ele>659.1</ele>
        <time>2022-04-22T12:27:52Z</time>
      </trkpt>
      <trkpt lat="43.66412" lon="6.19179">
        <ele>659.6</ele>
        <time>2022-04-22T12:28:01Z</time>
      </trkpt>
      <trkpt lat="43.66407" lon="6.19191">
        <ele>660.1</ele>
        <time>2022-04-22T12:28:10Z</time>
      </trkpt>
      <trkpt lat="43.66401" lon="6.19204">
        <ele>660.5</ele>
        <time>2022-04-22T12:28:19Z</time>
      </trkpt>
      <trkpt lat="43.66396" lon="6.19217">
        <ele>661.1</ele>
        <time>2022-04-22T12:28:29Z</time>
      </trkpt>
      <trkpt lat="43.66394" lon="6.1923">
        <ele>662.1</ele>
        <time>2022-04-22T12:28:38Z</time>
      </trkpt>
      <trkpt lat="43.66395" lon="6.19242">
        <ele>663.4</ele>
        <time>2022-04-22T12:28:47Z</time>
      </trkpt>
      <trkpt lat="43.66394" lon="6.19257">
        <ele>664.7</ele>
        <time>2022-04-22T12:28:57Z</time>
      </trkpt>
      <trkpt lat="43.66393" lon="6.1927">
        <ele>665.7</ele>
        <time>2022-04-22T12:29:08Z</time>
      </trkpt>
      <trkpt lat="43.66394" lon="6.19284">
        <ele>667.1</ele>
        <time>2022-04-22T12:29:19Z</time>
      </trkpt>
      <trkpt lat="43.66394" lon="6.19296">
        <ele>668.4</ele>
        <time>2022-04-22T12:29:29Z</time>
      </trkpt>
      <trkpt lat="43.66395" lon="6.1931">
        <ele>669.8</ele>
        <time>2022-04-22T12:29:40Z</time>
      </trkpt>
      <trkpt lat="43.66394" lon="6.19324">
        <ele>670.7</ele>
        <time>2022-04-22T12:29:51Z</time>
      </trkpt>
      <trkpt lat="43.66388" lon="6.19334">
        <ele>671</ele>
        <time>2022-04-22T12:30:02Z</time>
      </trkpt>
      <trkpt lat="43.66385" lon="6.19347">
        <ele>672.1</ele>
        <time>2022-04-22T12:30:11Z</time>
      </trkpt>
      <trkpt lat="43.66381" lon="6.19358">
        <ele>672.9</ele>
        <time>2022-04-22T12:30:20Z</time>
      </trkpt>
      <trkpt lat="43.66376" lon="6.1937">
        <ele>673.1</ele>
        <time>2022-04-22T12:30:30Z</time>
      </trkpt>
      <trkpt lat="43.66378" lon="6.19384">
        <ele>674.1</ele>
        <time>2022-04-22T12:30:39Z</time>
      </trkpt>
      <trkpt lat="43.66378" lon="6.19398">
        <ele>674.9</ele>
        <time>2022-04-22T12:30:48Z</time>
      </trkpt>
      <trkpt lat="43.66378" lon="6.19412">
        <ele>675.6</ele>
        <time>2022-04-22T12:30:59Z</time>
      </trkpt>
      <trkpt lat="43.6638" lon="6.19431">
        <ele>676.5</ele>
        <time>2022-04-22T12:31:12Z</time>
      </trkpt>
      <trkpt lat="43.66376" lon="6.19432">
        <ele>676.1</ele>
        <time>2022-04-22T12:31:27Z</time>
      </trkpt>
      <trkpt lat="43.66375" lon="6.19428">
        <ele>675.9</ele>
        <time>2022-04-22T12:32:13Z</time>
      </trkpt>
      <trkpt lat="43.66378" lon="6.19452">
        <ele>677.3</ele>
        <time>2022-04-22T12:32:29Z</time>
      </trkpt>
      <trkpt lat="43.66378" lon="6.19469">
        <ele>678.3</ele>
        <time>2022-04-22T12:32:39Z</time>
      </trkpt>
      <trkpt lat="43.66383" lon="6.19483">
        <ele>679.5</ele>
        <time>2022-04-22T12:32:49Z</time>
      </trkpt>
      <trkpt lat="43.66385" lon="6.195">
        <ele>680.4</ele>
        <time>2022-04-22T12:32:59Z</time>
      </trkpt>
      <trkpt lat="43.66387" lon="6.19514">
        <ele>681.2</ele>
        <time>2022-04-22T12:33:09Z</time>
      </trkpt>
      <trkpt lat="43.66386" lon="6.19528">
        <ele>681.7</ele>
        <time>2022-04-22T12:33:21Z</time>
      </trkpt>
      <trkpt lat="43.66387" lon="6.19543">
        <ele>682.8</ele>
        <time>2022-04-22T12:33:33Z</time>
      </trkpt>
      <trkpt lat="43.66382" lon="6.1956">
        <ele>683.5</ele>
        <time>2022-04-22T12:33:44Z</time>
      </trkpt>
      <trkpt lat="43.66377" lon="6.19573">
        <ele>683.9</ele>
        <time>2022-04-22T12:33:54Z</time>
      </trkpt>
      <trkpt lat="43.66374" lon="6.19585">
        <ele>684.5</ele>
        <time>2022-04-22T12:34:04Z</time>
      </trkpt>
      <trkpt lat="43.66369" lon="6.19597">
        <ele>684.5</ele>
        <time>2022-04-22T12:34:12Z</time>
      </trkpt>
      <trkpt lat="43.66366" lon="6.19607">
        <ele>684.6</ele>
        <time>2022-04-22T12:34:20Z</time>
      </trkpt>
      <trkpt lat="43.66362" lon="6.19621">
        <ele>684.5</ele>
        <time>2022-04-22T12:34:29Z</time>
      </trkpt>
      <trkpt lat="43.66357" lon="6.19638">
        <ele>684.4</ele>
        <time>2022-04-22T12:34:39Z</time>
      </trkpt>
      <trkpt lat="43.66353" lon="6.19652">
        <ele>684.8</ele>
        <time>2022-04-22T12:34:48Z</time>
      </trkpt>
      <trkpt lat="43.66353" lon="6.19666">
        <ele>685.8</ele>
        <time>2022-04-22T12:34:57Z</time>
      </trkpt>
      <trkpt lat="43.66352" lon="6.19679">
        <ele>686.3</ele>
        <time>2022-04-22T12:35:09Z</time>
      </trkpt>
      <trkpt lat="43.66363" lon="6.19674">
        <ele>687.6</ele>
        <time>2022-04-22T12:35:24Z</time>
      </trkpt>
      <trkpt lat="43.66369" lon="6.19663">
        <ele>688.1</ele>
        <time>2022-04-22T12:35:35Z</time>
      </trkpt>
      <trkpt lat="43.66378" lon="6.19655">
        <ele>689.2</ele>
        <time>2022-04-22T12:35:47Z</time>
      </trkpt>
      <trkpt lat="43.66387" lon="6.1964">
        <ele>689.8</ele>
        <time>2022-04-22T12:36:00Z</time>
      </trkpt>
      <trkpt lat="43.66393" lon="6.19627">
        <ele>690.4</ele>
        <time>2022-04-22T12:36:10Z</time>
      </trkpt>
      <trkpt lat="43.66401" lon="6.19618">
        <ele>692.1</ele>
        <time>2022-04-22T12:36:20Z</time>
      </trkpt>
      <trkpt lat="43.66409" lon="6.19608">
        <ele>693</ele>
        <time>2022-04-22T12:36:31Z</time>
      </trkpt>
      <trkpt lat="43.66418" lon="6.196">
        <ele>694.6</ele>
        <time>2022-04-22T12:36:43Z</time>
      </trkpt>
      <trkpt lat="43.66427" lon="6.19592">
        <ele>696</ele>
        <time>2022-04-22T12:36:53Z</time>
      </trkpt>
      <trkpt lat="43.66435" lon="6.19586">
        <ele>697.2</ele>
        <time>2022-04-22T12:37:05Z</time>
      </trkpt>
      <trkpt lat="43.66442" lon="6.19579">
        <ele>698.1</ele>
        <time>2022-04-22T12:37:17Z</time>
      </trkpt>
      <trkpt lat="43.66451" lon="6.19574">
        <ele>699.3</ele>
        <time>2022-04-22T12:37:36Z</time>
      </trkpt>
      <trkpt lat="43.6646" lon="6.19566">
        <ele>700.3</ele>
        <time>2022-04-22T12:37:46Z</time>
      </trkpt>
      <trkpt lat="43.66468" lon="6.19556">
        <ele>700.3</ele>
        <time>2022-04-22T12:37:55Z</time>
      </trkpt>
      <trkpt lat="43.66476" lon="6.19548">
        <ele>700.6</ele>
        <time>2022-04-22T12:38:04Z</time>
      </trkpt>
      <trkpt lat="43.66486" lon="6.19538">
        <ele>700.7</ele>
        <time>2022-04-22T12:38:14Z</time>
      </trkpt>
      <trkpt lat="43.66493" lon="6.19527">
        <ele>699.9</ele>
        <time>2022-04-22T12:38:24Z</time>
      </trkpt>
      <trkpt lat="43.66497" lon="6.19517">
        <ele>699.5</ele>
        <time>2022-04-22T12:38:53Z</time>
      </trkpt>
      <trkpt lat="43.66505" lon="6.19523">
        <ele>701</ele>
        <time>2022-04-22T12:39:18Z</time>
      </trkpt>
      <trkpt lat="43.66513" lon="6.19528">
        <ele>702.4</ele>
        <time>2022-04-22T12:39:27Z</time>
      </trkpt>
      <trkpt lat="43.6652" lon="6.19535">
        <ele>704.3</ele>
        <time>2022-04-22T12:39:38Z</time>
      </trkpt>
      <trkpt lat="43.66527" lon="6.19542">
        <ele>706</ele>
        <time>2022-04-22T12:39:52Z</time>
      </trkpt>
      <trkpt lat="43.66536" lon="6.19548">
        <ele>708.7</ele>
        <time>2022-04-22T12:40:08Z</time>
      </trkpt>
      <trkpt lat="43.66545" lon="6.19544">
        <ele>710.5</ele>
        <time>2022-04-22T12:40:23Z</time>
      </trkpt>
      <trkpt lat="43.66548" lon="6.19537">
        <ele>710.8</ele>
        <time>2022-04-22T12:40:45Z</time>
      </trkpt>
      <trkpt lat="43.66553" lon="6.19525">
        <ele>712.2</ele>
        <time>2022-04-22T12:41:05Z</time>
      </trkpt>
      <trkpt lat="43.66561" lon="6.19515">
        <ele>715</ele>
        <time>2022-04-22T12:41:19Z</time>
      </trkpt>
      <trkpt lat="43.66567" lon="6.19504">
        <ele>716.8</ele>
        <time>2022-04-22T12:41:34Z</time>
      </trkpt>
      <trkpt lat="43.66574" lon="6.19493">
        <ele>718.1</ele>
        <time>2022-04-22T12:41:48Z</time>
      </trkpt>
      <trkpt lat="43.66582" lon="6.19485">
        <ele>719.6</ele>
        <time>2022-04-22T12:42:02Z</time>
      </trkpt>
      <trkpt lat="43.66592" lon="6.19479">
        <ele>721.4</ele>
        <time>2022-04-22T12:42:15Z</time>
      </trkpt>
      <trkpt lat="43.66604" lon="6.19476">
        <ele>723.9</ele>
        <time>2022-04-22T12:42:27Z</time>
      </trkpt>
      <trkpt lat="43.66612" lon="6.19474">
        <ele>725.7</ele>
        <time>2022-04-22T12:42:39Z</time>
      </trkpt>
      <trkpt lat="43.66623" lon="6.19471">
        <ele>728.1</ele>
        <time>2022-04-22T12:42:53Z</time>
      </trkpt>
      <trkpt lat="43.66632" lon="6.19464">
        <ele>729.1</ele>
        <time>2022-04-22T12:43:07Z</time>
      </trkpt>
      <trkpt lat="43.66643" lon="6.19458">
        <ele>730.8</ele>
        <time>2022-04-22T12:43:21Z</time>
      </trkpt>
      <trkpt lat="43.66646" lon="6.19454">
        <ele>730.9</ele>
        <time>2022-04-22T12:43:48Z</time>
      </trkpt>
      <trkpt lat="43.66643" lon="6.19448">
        <ele>728.4</ele>
        <time>2022-04-22T12:44:11Z</time>
      </trkpt>
      <trkpt lat="43.66642" lon="6.1945">
        <ele>728.6</ele>
        <time>2022-04-22T12:45:49Z</time>
      </trkpt>
      <trkpt lat="43.66647" lon="6.19441">
        <ele>728.2</ele>
        <time>2022-04-22T12:46:40Z</time>
      </trkpt>
      <trkpt lat="43.66657" lon="6.19439">
        <ele>731.6</ele>
        <time>2022-04-22T12:46:55Z</time>
      </trkpt>
      <trkpt lat="43.66665" lon="6.19432">
        <ele>733.9</ele>
        <time>2022-04-22T12:47:09Z</time>
      </trkpt>
      <trkpt lat="43.66672" lon="6.19423">
        <ele>735.6</ele>
        <time>2022-04-22T12:47:23Z</time>
      </trkpt>
      <trkpt lat="43.66679" lon="6.19413">
        <ele>737.1</ele>
        <time>2022-04-22T12:47:37Z</time>
      </trkpt>
      <trkpt lat="43.66687" lon="6.19404">
        <ele>739.3</ele>
        <time>2022-04-22T12:47:53Z</time>
      </trkpt>
      <trkpt lat="43.66695" lon="6.19396">
        <ele>741.9</ele>
        <time>2022-04-22T12:48:08Z</time>
      </trkpt>
      <trkpt lat="43.66705" lon="6.1939">
        <ele>744.4</ele>
        <time>2022-04-22T12:48:27Z</time>
      </trkpt>
      <trkpt lat="43.66715" lon="6.19383">
        <ele>746.8</ele>
        <time>2022-04-22T12:48:43Z</time>
      </trkpt>
      <trkpt lat="43.66724" lon="6.1938">
        <ele>749.6</ele>
        <time>2022-04-22T12:49:00Z</time>
      </trkpt>
      <trkpt lat="43.66729" lon="6.19388">
        <ele>751.3</ele>
        <time>2022-04-22T12:49:18Z</time>
      </trkpt>
      <trkpt lat="43.66734" lon="6.194">
        <ele>753.2</ele>
        <time>2022-04-22T12:49:34Z</time>
      </trkpt>
      <trkpt lat="43.66741" lon="6.1941">
        <ele>754.8</ele>
        <time>2022-04-22T12:49:47Z</time>
      </trkpt>
      <trkpt lat="43.66748" lon="6.19427">
        <ele>756.2</ele>
      </trkpt>
      <trkpt lat="43.66749" lon="6.19449">
        <ele>757</ele>
      </trkpt>
      <trkpt lat="43.6675" lon="6.19469">
        <ele>756.9</ele>
      </trkpt>
      <trkpt lat="43.66754" lon="6.19487">
        <ele>758</ele>
      </trkpt>
      <trkpt lat="43.66759" lon="6.19506">
        <ele>759.7</ele>
      </trkpt>
      <trkpt lat="43.66769" lon="6.19525">
        <ele>761.2</ele>
      </trkpt>
      <trkpt lat="43.66776" lon="6.19538">
        <ele>762.3</ele>
      </trkpt>
      <trkpt lat="43.66781" lon="6.19554">
        <ele>764.7</ele>
      </trkpt>
      <trkpt lat="43.66786" lon="6.19568">
        <ele>766.3</ele>
      </trkpt>
      <trkpt lat="43.6679" lon="6.19583">
        <ele>767.7</ele>
      </trkpt>
      <trkpt lat="43.66791" lon="6.196">
        <ele>769.4</ele>
      </trkpt>
      <trkpt lat="43.66793" lon="6.19616">
        <ele>770.9</ele>
      </trkpt>
      <trkpt lat="43.66795" lon="6.19631">
        <ele>772.3</ele>
      </trkpt>
      <trkpt lat="43.66797" lon="6.19646">
        <ele>773.8</ele>
      </trkpt>
      <trkpt lat="43.66801" lon="6.19662">
        <ele>775.1</ele>
      </trkpt>
      <trkpt lat="43.66805" lon="6.19676">
        <ele>776.4</ele>
      </trkpt>
      <trkpt lat="43.66811" lon="6.19691">
        <ele>778.1</ele>
      </trkpt>
      <trkpt lat="43.66816" lon="6.19706">
        <ele>779.5</ele>
      </trkpt>
      <trkpt lat="43.66819" lon="6.19723">
        <ele>781.1</ele>
      </trkpt>
      <trkpt lat="43.66822" lon="6.19737">
        <ele>781.9</ele>
      </trkpt>
      <trkpt lat="43.66825" lon="6.19747">
        <ele>782.4</ele>
      </trkpt>
      <trkpt lat="43.66827" lon="6.19756">
        <ele>783</ele>
      </trkpt>
      <trkpt lat="43.6683" lon="6.19771">
        <ele>783.9</ele>
      </trkpt>
      <trkpt lat="43.66832" lon="6.19782">
        <ele>784.5</ele>
      </trkpt>
      <trkpt lat="43.66833" lon="6.19789">
        <ele>784.9</ele>
      </trkpt>
      <trkpt lat="43.66835" lon="6.19797">
        <ele>785.2</ele>
      </trkpt>
      <trkpt lat="43.66838" lon="6.19805">
        <ele>785.5</ele>
      </trkpt>
      <trkpt lat="43.6684" lon="6.19815">
        <ele>786.6</ele>
      </trkpt>
      <trkpt lat="43.66842" lon="6.19824">
        <ele>787.8</ele>
      </trkpt>
      <trkpt lat="43.66845" lon="6.19835">
        <ele>789.4</ele>
      </trkpt>
      <trkpt lat="43.66847" lon="6.19843">
        <ele>790.2</ele>
      </trkpt>
      <trkpt lat="43.66849" lon="6.19851">
        <ele>791.1</ele>
      </trkpt>
      <trkpt lat="43.66851" lon="6.19858">
        <ele>792</ele>
      </trkpt>
      <trkpt lat="43.66852" lon="6.19864">
        <ele>792.9</ele>
      </trkpt>
      <trkpt lat="43.66853" lon="6.19872">
        <ele>794</ele>
      </trkpt>
      <trkpt lat="43.66853" lon="6.19878">
        <ele>795</ele>
      </trkpt>
      <trkpt lat="43.66854" lon="6.19885">
        <ele>796</ele>
      </trkpt>
      <trkpt lat="43.66854" lon="6.19889">
        <ele>796.7</ele>
      </trkpt>
      <trkpt lat="43.66853" lon="6.19894">
        <ele>796.9</ele>
      </trkpt>
      <trkpt lat="43.66851" lon="6.19897">
        <ele>797</ele>
      </trkpt>
      <trkpt lat="43.66847" lon="6.19905">
        <ele>797.1</ele>
        <time>2022-04-22T12:49:59Z</time>
      </trkpt>
      <trkpt lat="43.66845" lon="6.19906">
        <ele>797</ele>
      </trkpt>
      <trkpt lat="43.66843" lon="6.19908">
        <ele>796.8</ele>
      </trkpt>
      <trkpt lat="43.6684" lon="6.19909">
        <ele>796.6</ele>
      </trkpt>
      <trkpt lat="43.66836" lon="6.19908">
        <ele>796.2</ele>
      </trkpt>
      <trkpt lat="43.6683" lon="6.19907">
        <ele>796.3</ele>
      </trkpt>
      <trkpt lat="43.66825" lon="6.19905">
        <ele>796.8</ele>
      </trkpt>
      <trkpt lat="43.66821" lon="6.19904">
        <ele>797.2</ele>
      </trkpt>
      <trkpt lat="43.66818" lon="6.19903">
        <ele>797.7</ele>
      </trkpt>
      <trkpt lat="43.66814" lon="6.19901">
        <ele>798.3</ele>
      </trkpt>
      <trkpt lat="43.6681" lon="6.199">
        <ele>798.9</ele>
      </trkpt>
      <trkpt lat="43.66805" lon="6.19898">
        <ele>799.7</ele>
      </trkpt>
      <trkpt lat="43.668" lon="6.19896">
        <ele>800.3</ele>
      </trkpt>
      <trkpt lat="43.66797" lon="6.19894">
        <ele>800.7</ele>
      </trkpt>
      <trkpt lat="43.66793" lon="6.19893">
        <ele>801.2</ele>
      </trkpt>
      <trkpt lat="43.66789" lon="6.19891">
        <ele>801.8</ele>
      </trkpt>
      <trkpt lat="43.66784" lon="6.1989">
        <ele>802.4</ele>
      </trkpt>
      <trkpt lat="43.66781" lon="6.1989">
        <ele>802.6</ele>
      </trkpt>
      <trkpt lat="43.66777" lon="6.19889">
        <ele>803</ele>
      </trkpt>
      <trkpt lat="43.66773" lon="6.19888">
        <ele>803.1</ele>
      </trkpt>
      <trkpt lat="43.66771" lon="6.19888">
        <ele>803.2</ele>
      </trkpt>
      <trkpt lat="43.66769" lon="6.19887">
        <ele>803.3</ele>
      </trkpt>
      <trkpt lat="43.66765" lon="6.19886">
        <ele>803.4</ele>
      </trkpt>
      <trkpt lat="43.66762" lon="6.19886">
        <ele>803.5</ele>
      </trkpt>
      <trkpt lat="43.66759" lon="6.19885">
        <ele>803.7</ele>
      </trkpt>
      <trkpt lat="43.66755" lon="6.19885">
        <ele>803.9</ele>
      </trkpt>
      <trkpt lat="43.66752" lon="6.19883">
        <ele>804.1</ele>
      </trkpt>
      <trkpt lat="43.66748" lon="6.19881">
        <ele>804.5</ele>
      </trkpt>
      <trkpt lat="43.66745" lon="6.19878">
        <ele>804.9</ele>
      </trkpt>
      <trkpt lat="43.66742" lon="6.19875">
        <ele>805.4</ele>
      </trkpt>
      <trkpt lat="43.66737" lon="6.19873">
        <ele>806</ele>
      </trkpt>
      <trkpt lat="43.66734" lon="6.19871">
        <ele>806.5</ele>
      </trkpt>
      <trkpt lat="43.66731" lon="6.1987">
        <ele>807</ele>
      </trkpt>
      <trkpt lat="43.66727" lon="6.1987">
        <ele>807.6</ele>
      </trkpt>
      <trkpt lat="43.66722" lon="6.19869">
        <ele>808.1</ele>
      </trkpt>
      <trkpt lat="43.66717" lon="6.19867">
        <ele>808</ele>
      </trkpt>
      <trkpt lat="43.66714" lon="6.19866">
        <ele>807.9</ele>
      </trkpt>
      <trkpt lat="43.66696" lon="6.19856">
        <ele>806.6</ele>
      </trkpt>
      <trkpt lat="43.66702" lon="6.19859">
        <ele>807.3</ele>
      </trkpt>
      <trkpt lat="43.66708" lon="6.19862">
        <ele>807.9</ele>
      </trkpt>
      <trkpt lat="43.66712" lon="6.19864">
        <ele>808</ele>
      </trkpt>
      <trkpt lat="43.66716" lon="6.19867">
        <ele>808</ele>
      </trkpt>
      <trkpt lat="43.66718" lon="6.19868">
        <ele>808</ele>
      </trkpt>
      <trkpt lat="43.66721" lon="6.19867">
        <ele>808.3</ele>
      </trkpt>
      <trkpt lat="43.66722" lon="6.19859">
        <ele>808.8</ele>
      </trkpt>
      <trkpt lat="43.66725" lon="6.19833">
        <ele>806.5</ele>
      </trkpt>
      <trkpt lat="43.66728" lon="6.19807">
        <ele>801.9</ele>
      </trkpt>
      <trkpt lat="43.66737" lon="6.19741">
        <ele>792.4</ele>
      </trkpt>
      <trkpt lat="43.66741" lon="6.19693">
        <ele>785.2</ele>
      </trkpt>
      <trkpt lat="43.66746" lon="6.1965">
        <ele>781.1</ele>
      </trkpt>
      <trkpt lat="43.66753" lon="6.19602">
        <ele>774.4</ele>
      </trkpt>
      <trkpt lat="43.66755" lon="6.1958">
        <ele>771.1</ele>
      </trkpt>
      <trkpt lat="43.66758" lon="6.19551">
        <ele>767.1</ele>
      </trkpt>
      <trkpt lat="43.66761" lon="6.19526">
        <ele>762.8</ele>
      </trkpt>
      <trkpt lat="43.66763" lon="6.19516">
        <ele>760.7</ele>
      </trkpt>
      <trkpt lat="43.66753" lon="6.19477">
        <ele>756.9</ele>
      </trkpt>
      <trkpt lat="43.6675" lon="6.19453">
        <ele>757</ele>
      </trkpt>
      <trkpt lat="43.6675" lon="6.19434">
        <ele>756.6</ele>
      </trkpt>
      <trkpt lat="43.66749" lon="6.1942">
        <ele>756</ele>
      </trkpt>
      <trkpt lat="43.66762" lon="6.19407">
        <ele>755.4</ele>
        <time>2022-04-22T12:50:13Z</time>
      </trkpt>
      <trkpt lat="43.66763" lon="6.19401">
        <ele>755.6</ele>
        <time>2022-04-22T12:51:47Z</time>
      </trkpt>
      <trkpt lat="43.66772" lon="6.19394">
        <ele>755.7</ele>
        <time>2022-04-22T12:51:58Z</time>
      </trkpt>
      <trkpt lat="43.66778" lon="6.19385">
        <ele>756.6</ele>
        <time>2022-04-22T12:52:09Z</time>
      </trkpt>
      <trkpt lat="43.66784" lon="6.19374">
        <ele>757</ele>
        <time>2022-04-22T12:52:21Z</time>
      </trkpt>
      <trkpt lat="43.66791" lon="6.1936">
        <ele>757.7</ele>
        <time>2022-04-22T12:52:33Z</time>
      </trkpt>
      <trkpt lat="43.66797" lon="6.19347">
        <ele>758.3</ele>
        <time>2022-04-22T12:52:47Z</time>
      </trkpt>
      <trkpt lat="43.66806" lon="6.19334">
        <ele>758.7</ele>
        <time>2022-04-22T12:52:59Z</time>
      </trkpt>
      <trkpt lat="43.66813" lon="6.1932">
        <ele>758.8</ele>
        <time>2022-04-22T12:53:09Z</time>
      </trkpt>
      <trkpt lat="43.66814" lon="6.19309">
        <ele>759.9</ele>
        <time>2022-04-22T12:53:38Z</time>
      </trkpt>
      <trkpt lat="43.66821" lon="6.193">
        <ele>759.4</ele>
        <time>2022-04-22T12:53:50Z</time>
      </trkpt>
      <trkpt lat="43.66827" lon="6.19288">
        <ele>759.3</ele>
        <time>2022-04-22T12:54:00Z</time>
      </trkpt>
      <trkpt lat="43.66839" lon="6.19273">
        <ele>757.2</ele>
        <time>2022-04-22T12:54:13Z</time>
      </trkpt>
      <trkpt lat="43.66845" lon="6.19257">
        <ele>757.7</ele>
        <time>2022-04-22T12:54:27Z</time>
      </trkpt>
      <trkpt lat="43.66854" lon="6.19244">
        <ele>756.7</ele>
        <time>2022-04-22T12:54:43Z</time>
      </trkpt>
      <trkpt lat="43.66862" lon="6.19229">
        <ele>756.3</ele>
        <time>2022-04-22T12:54:55Z</time>
      </trkpt>
      <trkpt lat="43.66867" lon="6.19218">
        <ele>756</ele>
        <time>2022-04-22T12:55:04Z</time>
      </trkpt>
      <trkpt lat="43.66873" lon="6.19209">
        <ele>754.5</ele>
        <time>2022-04-22T12:55:14Z</time>
      </trkpt>
      <trkpt lat="43.66885" lon="6.19183">
        <ele>752.8</ele>
        <time>2022-04-22T12:55:32Z</time>
      </trkpt>
      <trkpt lat="43.66889" lon="6.19169">
        <ele>752.6</ele>
        <time>2022-04-22T12:55:44Z</time>
      </trkpt>
      <trkpt lat="43.66894" lon="6.19157">
        <ele>751.4</ele>
        <time>2022-04-22T12:55:55Z</time>
      </trkpt>
      <trkpt lat="43.66897" lon="6.19137">
        <ele>752.1</ele>
        <time>2022-04-22T12:56:07Z</time>
      </trkpt>
      <trkpt lat="43.66906" lon="6.19126">
        <ele>751.2</ele>
        <time>2022-04-22T12:56:17Z</time>
      </trkpt>
      <trkpt lat="43.66914" lon="6.19118">
        <ele>749.7</ele>
        <time>2022-04-22T12:56:26Z</time>
      </trkpt>
      <trkpt lat="43.66918" lon="6.19106">
        <ele>749.9</ele>
        <time>2022-04-22T12:56:35Z</time>
      </trkpt>
      <trkpt lat="43.66928" lon="6.19084">
        <ele>748.7</ele>
        <time>2022-04-22T12:56:50Z</time>
      </trkpt>
      <trkpt lat="43.66931" lon="6.1907">
        <ele>749.5</ele>
        <time>2022-04-22T12:56:59Z</time>
      </trkpt>
      <trkpt lat="43.66937" lon="6.19057">
        <ele>748.9</ele>
        <time>2022-04-22T12:57:09Z</time>
      </trkpt>
      <trkpt lat="43.66942" lon="6.19043">
        <ele>747.7</ele>
        <time>2022-04-22T12:57:20Z</time>
      </trkpt>
      <trkpt lat="43.6695" lon="6.19029">
        <ele>745.6</ele>
        <time>2022-04-22T12:57:32Z</time>
      </trkpt>
      <trkpt lat="43.6696" lon="6.19013">
        <ele>743.9</ele>
        <time>2022-04-22T12:57:43Z</time>
      </trkpt>
      <trkpt lat="43.66968" lon="6.19001">
        <ele>742.5</ele>
        <time>2022-04-22T12:57:52Z</time>
      </trkpt>
      <trkpt lat="43.66974" lon="6.1899">
        <ele>742.2</ele>
        <time>2022-04-22T12:58:00Z</time>
      </trkpt>
      <trkpt lat="43.66983" lon="6.18978">
        <ele>741</ele>
        <time>2022-04-22T12:58:10Z</time>
      </trkpt>
      <trkpt lat="43.66989" lon="6.18967">
        <ele>740.7</ele>
        <time>2022-04-22T12:58:19Z</time>
      </trkpt>
      <trkpt lat="43.66996" lon="6.18955">
        <ele>740.4</ele>
        <time>2022-04-22T12:58:29Z</time>
      </trkpt>
      <trkpt lat="43.67005" lon="6.18944">
        <ele>739.7</ele>
        <time>2022-04-22T12:58:39Z</time>
      </trkpt>
      <trkpt lat="43.6701" lon="6.1893">
        <ele>742.7</ele>
        <time>2022-04-22T12:58:49Z</time>
      </trkpt>
      <trkpt lat="43.67013" lon="6.18918">
        <ele>745.9</ele>
        <time>2022-04-22T12:58:59Z</time>
      </trkpt>
      <trkpt lat="43.67027" lon="6.18912">
        <ele>744.4</ele>
        <time>2022-04-22T12:59:09Z</time>
      </trkpt>
      <trkpt lat="43.67043" lon="6.18905">
        <ele>740.3</ele>
        <time>2022-04-22T12:59:19Z</time>
      </trkpt>
      <trkpt lat="43.67052" lon="6.18896">
        <ele>739.4</ele>
        <time>2022-04-22T12:59:29Z</time>
      </trkpt>
      <trkpt lat="43.6706" lon="6.1889">
        <ele>737.8</ele>
        <time>2022-04-22T12:59:39Z</time>
      </trkpt>
      <trkpt lat="43.67066" lon="6.18878">
        <ele>738.5</ele>
        <time>2022-04-22T12:59:50Z</time>
      </trkpt>
      <trkpt lat="43.67072" lon="6.1886">
        <ele>740.7</ele>
        <time>2022-04-22T13:00:03Z</time>
      </trkpt>
      <trkpt lat="43.67086" lon="6.18855">
        <ele>736.9</ele>
        <time>2022-04-22T13:00:15Z</time>
      </trkpt>
      <trkpt lat="43.67103" lon="6.18849">
        <ele>734</ele>
        <time>2022-04-22T13:00:26Z</time>
      </trkpt>
      <trkpt lat="43.67113" lon="6.18845">
        <ele>731.8</ele>
        <time>2022-04-22T13:00:36Z</time>
      </trkpt>
      <trkpt lat="43.67125" lon="6.18839">
        <ele>729.2</ele>
        <time>2022-04-22T13:00:47Z</time>
      </trkpt>
      <trkpt lat="43.6714" lon="6.1884">
        <ele>724.1</ele>
        <time>2022-04-22T13:00:57Z</time>
      </trkpt>
      <trkpt lat="43.67149" lon="6.18834">
        <ele>722.6</ele>
        <time>2022-04-22T13:01:07Z</time>
      </trkpt>
      <trkpt lat="43.67156" lon="6.18824">
        <ele>721.5</ele>
        <time>2022-04-22T13:01:17Z</time>
      </trkpt>
      <trkpt lat="43.67163" lon="6.18811">
        <ele>720.9</ele>
        <time>2022-04-22T13:01:28Z</time>
      </trkpt>
      <trkpt lat="43.67169" lon="6.18801">
        <ele>719.8</ele>
        <time>2022-04-22T13:01:38Z</time>
      </trkpt>
      <trkpt lat="43.67176" lon="6.18792">
        <ele>718.2</ele>
        <time>2022-04-22T13:01:48Z</time>
      </trkpt>
      <trkpt lat="43.67185" lon="6.18783">
        <ele>715.7</ele>
        <time>2022-04-22T13:01:59Z</time>
      </trkpt>
      <trkpt lat="43.67196" lon="6.18777">
        <ele>712.6</ele>
        <time>2022-04-22T13:02:10Z</time>
      </trkpt>
      <trkpt lat="43.67205" lon="6.18772">
        <ele>710</ele>
        <time>2022-04-22T13:02:21Z</time>
      </trkpt>
      <trkpt lat="43.67218" lon="6.18766">
        <ele>706.1</ele>
        <time>2022-04-22T13:02:32Z</time>
      </trkpt>
      <trkpt lat="43.67226" lon="6.18759">
        <ele>705.6</ele>
        <time>2022-04-22T13:02:42Z</time>
      </trkpt>
      <trkpt lat="43.67235" lon="6.18745">
        <ele>705.2</ele>
        <time>2022-04-22T13:02:53Z</time>
      </trkpt>
      <trkpt lat="43.67244" lon="6.1874">
        <ele>703.3</ele>
        <time>2022-04-22T13:03:04Z</time>
      </trkpt>
      <trkpt lat="43.67253" lon="6.1873">
        <ele>702.9</ele>
        <time>2022-04-22T13:03:15Z</time>
      </trkpt>
      <trkpt lat="43.67259" lon="6.18717">
        <ele>703.6</ele>
        <time>2022-04-22T13:03:26Z</time>
      </trkpt>
      <trkpt lat="43.67261" lon="6.18701">
        <ele>704.9</ele>
        <time>2022-04-22T13:03:38Z</time>
      </trkpt>
      <trkpt lat="43.67263" lon="6.18685">
        <ele>705.3</ele>
        <time>2022-04-22T13:03:49Z</time>
      </trkpt>
      <trkpt lat="43.67266" lon="6.18669">
        <ele>705.1</ele>
        <time>2022-04-22T13:04:01Z</time>
      </trkpt>
      <trkpt lat="43.67271" lon="6.18652">
        <ele>702.1</ele>
        <time>2022-04-22T13:04:13Z</time>
      </trkpt>
      <trkpt lat="43.67279" lon="6.18637">
        <ele>697.8</ele>
        <time>2022-04-22T13:04:24Z</time>
      </trkpt>
      <trkpt lat="43.67284" lon="6.18624">
        <ele>697.1</ele>
        <time>2022-04-22T13:04:36Z</time>
      </trkpt>
      <trkpt lat="43.67289" lon="6.18611">
        <ele>697.4</ele>
        <time>2022-04-22T13:04:48Z</time>
      </trkpt>
      <trkpt lat="43.67295" lon="6.18601">
        <ele>698.1</ele>
        <time>2022-04-22T13:05:01Z</time>
      </trkpt>
      <trkpt lat="43.67301" lon="6.1859">
        <ele>697.7</ele>
        <time>2022-04-22T13:05:13Z</time>
      </trkpt>
      <trkpt lat="43.67308" lon="6.1858">
        <ele>697</ele>
        <time>2022-04-22T13:05:24Z</time>
      </trkpt>
      <trkpt lat="43.67313" lon="6.18567">
        <ele>696.2</ele>
        <time>2022-04-22T13:05:35Z</time>
      </trkpt>
      <trkpt lat="43.67318" lon="6.1855">
        <ele>694.8</ele>
        <time>2022-04-22T13:05:48Z</time>
      </trkpt>
      <trkpt lat="43.67324" lon="6.18532">
        <ele>693.9</ele>
        <time>2022-04-22T13:05:59Z</time>
      </trkpt>
      <trkpt lat="43.67325" lon="6.18517">
        <ele>692.7</ele>
        <time>2022-04-22T13:06:12Z</time>
      </trkpt>
      <trkpt lat="43.67328" lon="6.18502">
        <ele>691.4</ele>
        <time>2022-04-22T13:06:25Z</time>
      </trkpt>
      <trkpt lat="43.67331" lon="6.18487">
        <ele>690</ele>
        <time>2022-04-22T13:06:39Z</time>
      </trkpt>
      <trkpt lat="43.67338" lon="6.18472">
        <ele>690.8</ele>
        <time>2022-04-22T13:06:53Z</time>
      </trkpt>
      <trkpt lat="43.67341" lon="6.18452">
        <ele>690.7</ele>
        <time>2022-04-22T13:07:07Z</time>
      </trkpt>
      <trkpt lat="43.6734" lon="6.18435">
        <ele>689.3</ele>
        <time>2022-04-22T13:07:20Z</time>
      </trkpt>
      <trkpt lat="43.67333" lon="6.18418">
        <ele>687</ele>
        <time>2022-04-22T13:07:35Z</time>
      </trkpt>
      <trkpt lat="43.67336" lon="6.18407">
        <ele>687.9</ele>
        <time>2022-04-22T13:07:47Z</time>
      </trkpt>
      <trkpt lat="43.67333" lon="6.18389">
        <ele>688.1</ele>
        <time>2022-04-22T13:08:00Z</time>
      </trkpt>
      <trkpt lat="43.6733" lon="6.1837">
        <ele>685.4</ele>
        <time>2022-04-22T13:08:13Z</time>
      </trkpt>
      <trkpt lat="43.6733" lon="6.18363">
        <ele>684.1</ele>
        <time>2022-04-22T13:08:33Z</time>
      </trkpt>
      <trkpt lat="43.67321" lon="6.18351">
        <ele>685.7</ele>
        <time>2022-04-22T13:08:47Z</time>
      </trkpt>
      <trkpt lat="43.67308" lon="6.18341">
        <ele>687.5</ele>
        <time>2022-04-22T13:09:00Z</time>
      </trkpt>
      <trkpt lat="43.67303" lon="6.18327">
        <ele>686.3</ele>
        <time>2022-04-22T13:09:09Z</time>
      </trkpt>
      <trkpt lat="43.673" lon="6.18313">
        <ele>684</ele>
        <time>2022-04-22T13:09:18Z</time>
      </trkpt>
      <trkpt lat="43.67296" lon="6.18299">
        <ele>683.1</ele>
        <time>2022-04-22T13:09:30Z</time>
      </trkpt>
      <trkpt lat="43.6729" lon="6.18285">
        <ele>682.9</ele>
        <time>2022-04-22T13:09:40Z</time>
      </trkpt>
      <trkpt lat="43.67286" lon="6.18271">
        <ele>682.1</ele>
        <time>2022-04-22T13:09:55Z</time>
      </trkpt>
      <trkpt lat="43.67279" lon="6.18254">
        <ele>681.3</ele>
        <time>2022-04-22T13:10:05Z</time>
      </trkpt>
      <trkpt lat="43.67277" lon="6.1824">
        <ele>680.3</ele>
        <time>2022-04-22T13:10:15Z</time>
      </trkpt>
      <trkpt lat="43.67271" lon="6.18225">
        <ele>679.9</ele>
        <time>2022-04-22T13:10:25Z</time>
      </trkpt>
      <trkpt lat="43.6726" lon="6.18196">
        <ele>680.1</ele>
        <time>2022-04-22T13:10:42Z</time>
      </trkpt>
      <trkpt lat="43.67249" lon="6.18174">
        <ele>676.7</ele>
        <time>2022-04-22T13:10:56Z</time>
      </trkpt>
      <trkpt lat="43.67244" lon="6.18152">
        <ele>676.8</ele>
        <time>2022-04-22T13:11:08Z</time>
      </trkpt>
      <trkpt lat="43.67237" lon="6.1813">
        <ele>677</ele>
        <time>2022-04-22T13:11:23Z</time>
      </trkpt>
      <trkpt lat="43.67236" lon="6.18115">
        <ele>676.2</ele>
        <time>2022-04-22T13:11:32Z</time>
      </trkpt>
      <trkpt lat="43.67238" lon="6.18095">
        <ele>676.1</ele>
        <time>2022-04-22T13:11:42Z</time>
      </trkpt>
      <trkpt lat="43.67233" lon="6.18081">
        <ele>675.8</ele>
        <time>2022-04-22T13:11:52Z</time>
      </trkpt>
      <trkpt lat="43.67228" lon="6.1806">
        <ele>674.4</ele>
        <time>2022-04-22T13:12:02Z</time>
      </trkpt>
      <trkpt lat="43.67227" lon="6.18038">
        <ele>673.5</ele>
        <time>2022-04-22T13:12:11Z</time>
      </trkpt>
      <trkpt lat="43.67225" lon="6.18026">
        <ele>672.7</ele>
        <time>2022-04-22T13:12:21Z</time>
      </trkpt>
      <trkpt lat="43.67225" lon="6.18012">
        <ele>672.1</ele>
        <time>2022-04-22T13:12:31Z</time>
      </trkpt>
      <trkpt lat="43.67226" lon="6.17994">
        <ele>671.8</ele>
        <time>2022-04-22T13:12:42Z</time>
      </trkpt>
      <trkpt lat="43.67224" lon="6.17966">
        <ele>670.1</ele>
        <time>2022-04-22T13:12:58Z</time>
      </trkpt>
      <trkpt lat="43.67221" lon="6.17951">
        <ele>669.5</ele>
        <time>2022-04-22T13:13:06Z</time>
      </trkpt>
      <trkpt lat="43.67222" lon="6.17937">
        <ele>669.3</ele>
        <time>2022-04-22T13:13:14Z</time>
      </trkpt>
      <trkpt lat="43.67228" lon="6.17925">
        <ele>670.3</ele>
        <time>2022-04-22T13:13:24Z</time>
      </trkpt>
      <trkpt lat="43.67234" lon="6.1791">
        <ele>670.8</ele>
        <time>2022-04-22T13:13:35Z</time>
      </trkpt>
      <trkpt lat="43.67238" lon="6.17895">
        <ele>670.6</ele>
        <time>2022-04-22T13:13:44Z</time>
      </trkpt>
      <trkpt lat="43.67237" lon="6.17882">
        <ele>670.1</ele>
        <time>2022-04-22T13:13:52Z</time>
      </trkpt>
      <trkpt lat="43.67239" lon="6.17868">
        <ele>669</ele>
        <time>2022-04-22T13:14:01Z</time>
      </trkpt>
      <trkpt lat="43.67241" lon="6.17855">
        <ele>668.2</ele>
        <time>2022-04-22T13:14:10Z</time>
      </trkpt>
      <trkpt lat="43.67244" lon="6.17841">
        <ele>667.3</ele>
        <time>2022-04-22T13:14:19Z</time>
      </trkpt>
      <trkpt lat="43.67247" lon="6.17827">
        <ele>666.5</ele>
        <time>2022-04-22T13:14:28Z</time>
      </trkpt>
      <trkpt lat="43.67251" lon="6.17813">
        <ele>666.1</ele>
        <time>2022-04-22T13:14:38Z</time>
      </trkpt>
      <trkpt lat="43.67254" lon="6.17798">
        <ele>666.4</ele>
        <time>2022-04-22T13:14:47Z</time>
      </trkpt>
      <trkpt lat="43.67257" lon="6.17783">
        <ele>666.5</ele>
        <time>2022-04-22T13:14:56Z</time>
      </trkpt>
      <trkpt lat="43.67258" lon="6.17768">
        <ele>665.9</ele>
        <time>2022-04-22T13:15:05Z</time>
      </trkpt>
      <trkpt lat="43.67262" lon="6.17757">
        <ele>665</ele>
        <time>2022-04-22T13:15:14Z</time>
      </trkpt>
      <trkpt lat="43.6727" lon="6.17746">
        <ele>663.9</ele>
        <time>2022-04-22T13:15:23Z</time>
      </trkpt>
      <trkpt lat="43.67276" lon="6.17734">
        <ele>663.7</ele>
        <time>2022-04-22T13:15:33Z</time>
      </trkpt>
      <trkpt lat="43.67279" lon="6.1772">
        <ele>664</ele>
        <time>2022-04-22T13:15:42Z</time>
      </trkpt>
      <trkpt lat="43.67285" lon="6.17708">
        <ele>663.7</ele>
        <time>2022-04-22T13:15:52Z</time>
      </trkpt>
      <trkpt lat="43.67287" lon="6.17697">
        <ele>663.4</ele>
        <time>2022-04-22T13:16:00Z</time>
      </trkpt>
      <trkpt lat="43.67291" lon="6.17686">
        <ele>662.9</ele>
        <time>2022-04-22T13:16:09Z</time>
      </trkpt>
      <trkpt lat="43.67295" lon="6.17674">
        <ele>662.3</ele>
        <time>2022-04-22T13:16:25Z</time>
      </trkpt>
      <trkpt lat="43.67294" lon="6.17661">
        <ele>662.1</ele>
        <time>2022-04-22T13:16:35Z</time>
      </trkpt>
      <trkpt lat="43.67289" lon="6.17651">
        <ele>662.2</ele>
        <time>2022-04-22T13:16:45Z</time>
      </trkpt>
      <trkpt lat="43.67282" lon="6.1764">
        <ele>661.9</ele>
        <time>2022-04-22T13:16:55Z</time>
      </trkpt>
      <trkpt lat="43.67276" lon="6.1763">
        <ele>661.7</ele>
        <time>2022-04-22T13:17:04Z</time>
      </trkpt>
      <trkpt lat="43.67267" lon="6.17625">
        <ele>661.5</ele>
        <time>2022-04-22T13:17:14Z</time>
      </trkpt>
      <trkpt lat="43.67259" lon="6.17622">
        <ele>661.4</ele>
        <time>2022-04-22T13:17:26Z</time>
      </trkpt>
      <trkpt lat="43.67251" lon="6.17621">
        <ele>661.4</ele>
        <time>2022-04-22T13:17:39Z</time>
      </trkpt>
      <trkpt lat="43.67242" lon="6.17611">
        <ele>660.7</ele>
        <time>2022-04-22T13:17:51Z</time>
      </trkpt>
      <trkpt lat="43.67233" lon="6.17604">
        <ele>660.1</ele>
        <time>2022-04-22T13:18:15Z</time>
      </trkpt>
      <trkpt lat="43.67225" lon="6.17596">
        <ele>659.6</ele>
        <time>2022-04-22T13:18:28Z</time>
      </trkpt>
      <trkpt lat="43.67215" lon="6.17589">
        <ele>659.2</ele>
        <time>2022-04-22T13:18:38Z</time>
      </trkpt>
      <trkpt lat="43.67207" lon="6.17582">
        <ele>658.9</ele>
        <time>2022-04-22T13:18:47Z</time>
      </trkpt>
      <trkpt lat="43.67198" lon="6.1757">
        <ele>658.1</ele>
        <time>2022-04-22T13:18:57Z</time>
      </trkpt>
      <trkpt lat="43.67189" lon="6.17558">
        <ele>657.2</ele>
        <time>2022-04-22T13:19:07Z</time>
      </trkpt>
      <trkpt lat="43.67181" lon="6.17551">
        <ele>656.8</ele>
        <time>2022-04-22T13:19:16Z</time>
      </trkpt>
      <trkpt lat="43.67174" lon="6.17541">
        <ele>656.5</ele>
        <time>2022-04-22T13:19:25Z</time>
      </trkpt>
      <trkpt lat="43.6716" lon="6.17522">
        <ele>655.6</ele>
        <time>2022-04-22T13:19:40Z</time>
      </trkpt>
      <trkpt lat="43.67154" lon="6.17511">
        <ele>654.8</ele>
        <time>2022-04-22T13:19:48Z</time>
      </trkpt>
      <trkpt lat="43.67148" lon="6.17501">
        <ele>654.1</ele>
        <time>2022-04-22T13:19:58Z</time>
      </trkpt>
      <trkpt lat="43.67144" lon="6.17487">
        <ele>653.5</ele>
        <time>2022-04-22T13:20:08Z</time>
      </trkpt>
      <trkpt lat="43.67134" lon="6.17473">
        <ele>652.8</ele>
        <time>2022-04-22T13:20:19Z</time>
      </trkpt>
      <trkpt lat="43.67125" lon="6.17467">
        <ele>652.1</ele>
        <time>2022-04-22T13:20:28Z</time>
      </trkpt>
      <trkpt lat="43.67117" lon="6.17459">
        <ele>651.2</ele>
        <time>2022-04-22T13:20:38Z</time>
      </trkpt>
      <trkpt lat="43.6711" lon="6.17452">
        <ele>650.6</ele>
        <time>2022-04-22T13:20:47Z</time>
      </trkpt>
      <trkpt lat="43.671" lon="6.17443">
        <ele>649.9</ele>
        <time>2022-04-22T13:20:58Z</time>
      </trkpt>
      <trkpt lat="43.67091" lon="6.17432">
        <ele>649.1</ele>
        <time>2022-04-22T13:21:09Z</time>
      </trkpt>
      <trkpt lat="43.67083" lon="6.17424">
        <ele>648.5</ele>
        <time>2022-04-22T13:21:20Z</time>
      </trkpt>
      <trkpt lat="43.67075" lon="6.17415">
        <ele>647.6</ele>
        <time>2022-04-22T13:21:30Z</time>
      </trkpt>
      <trkpt lat="43.67067" lon="6.17406">
        <ele>646.9</ele>
        <time>2022-04-22T13:21:39Z</time>
      </trkpt>
      <trkpt lat="43.67056" lon="6.17401">
        <ele>646.5</ele>
        <time>2022-04-22T13:21:49Z</time>
      </trkpt>
      <trkpt lat="43.67049" lon="6.17394">
        <ele>646.2</ele>
        <time>2022-04-22T13:21:58Z</time>
      </trkpt>
      <trkpt lat="43.67035" lon="6.17377">
        <ele>645.1</ele>
        <time>2022-04-22T13:22:12Z</time>
      </trkpt>
      <trkpt lat="43.67026" lon="6.17369">
        <ele>644.5</ele>
        <time>2022-04-22T13:22:22Z</time>
      </trkpt>
      <trkpt lat="43.67018" lon="6.17363">
        <ele>643.8</ele>
        <time>2022-04-22T13:22:32Z</time>
      </trkpt>
      <trkpt lat="43.67011" lon="6.17356">
        <ele>643.2</ele>
        <time>2022-04-22T13:22:41Z</time>
      </trkpt>
      <trkpt lat="43.67001" lon="6.17348">
        <ele>642.6</ele>
        <time>2022-04-22T13:22:51Z</time>
      </trkpt>
      <trkpt lat="43.66991" lon="6.17341">
        <ele>641.9</ele>
        <time>2022-04-22T13:23:00Z</time>
      </trkpt>
      <trkpt lat="43.66983" lon="6.17332">
        <ele>641.3</ele>
        <time>2022-04-22T13:23:09Z</time>
      </trkpt>
      <trkpt lat="43.66975" lon="6.17323">
        <ele>640.7</ele>
        <time>2022-04-22T13:23:18Z</time>
      </trkpt>
      <trkpt lat="43.66967" lon="6.17316">
        <ele>640.2</ele>
        <time>2022-04-22T13:23:27Z</time>
      </trkpt>
      <trkpt lat="43.66957" lon="6.17311">
        <ele>639.7</ele>
        <time>2022-04-22T13:23:36Z</time>
      </trkpt>
      <trkpt lat="43.66947" lon="6.17309">
        <ele>639.2</ele>
        <time>2022-04-22T13:23:45Z</time>
      </trkpt>
      <trkpt lat="43.66936" lon="6.17305">
        <ele>638.7</ele>
        <time>2022-04-22T13:23:55Z</time>
      </trkpt>
      <trkpt lat="43.66925" lon="6.17301">
        <ele>638</ele>
        <time>2022-04-22T13:24:06Z</time>
      </trkpt>
      <trkpt lat="43.6691" lon="6.173">
        <ele>637.5</ele>
        <time>2022-04-22T13:24:17Z</time>
      </trkpt>
      <trkpt lat="43.66898" lon="6.17298">
        <ele>637.3</ele>
        <time>2022-04-22T13:24:28Z</time>
      </trkpt>
      <trkpt lat="43.66888" lon="6.17295">
        <ele>636.8</ele>
        <time>2022-04-22T13:24:38Z</time>
      </trkpt>
      <trkpt lat="43.66869" lon="6.17291">
        <ele>636.1</ele>
        <time>2022-04-22T13:24:53Z</time>
      </trkpt>
      <trkpt lat="43.66858" lon="6.1729">
        <ele>635.9</ele>
        <time>2022-04-22T13:25:02Z</time>
      </trkpt>
      <trkpt lat="43.66848" lon="6.17289">
        <ele>636.1</ele>
        <time>2022-04-22T13:25:11Z</time>
      </trkpt>
      <trkpt lat="43.66838" lon="6.17287">
        <ele>636.2</ele>
        <time>2022-04-22T13:25:21Z</time>
      </trkpt>
      <trkpt lat="43.66827" lon="6.17283">
        <ele>636</ele>
        <time>2022-04-22T13:25:31Z</time>
      </trkpt>
      <trkpt lat="43.66817" lon="6.1728">
        <ele>635.5</ele>
        <time>2022-04-22T13:25:40Z</time>
      </trkpt>
      <trkpt lat="43.66807" lon="6.1728">
        <ele>635.1</ele>
        <time>2022-04-22T13:25:51Z</time>
      </trkpt>
      <trkpt lat="43.66809" lon="6.1728">
        <ele>635.2</ele>
        <time>2022-04-22T13:26:47Z</time>
      </trkpt>
      <trkpt lat="43.66804" lon="6.17281">
        <ele>635.1</ele>
        <time>2022-04-22T13:27:10Z</time>
      </trkpt>
      <trkpt lat="43.66791" lon="6.17276">
        <ele>635</ele>
        <time>2022-04-22T13:27:23Z</time>
      </trkpt>
      <trkpt lat="43.6678" lon="6.17273">
        <ele>634.8</ele>
        <time>2022-04-22T13:27:33Z</time>
      </trkpt>
      <trkpt lat="43.66769" lon="6.17271">
        <ele>634.5</ele>
        <time>2022-04-22T13:27:43Z</time>
      </trkpt>
      <trkpt lat="43.66759" lon="6.17267">
        <ele>634.2</ele>
        <time>2022-04-22T13:27:53Z</time>
      </trkpt>
      <trkpt lat="43.66745" lon="6.17266">
        <ele>633.8</ele>
        <time>2022-04-22T13:28:04Z</time>
      </trkpt>
      <trkpt lat="43.66733" lon="6.17263">
        <ele>633.4</ele>
        <time>2022-04-22T13:28:14Z</time>
      </trkpt>
      <trkpt lat="43.66722" lon="6.17263">
        <ele>633</ele>
        <time>2022-04-22T13:28:24Z</time>
      </trkpt>
      <trkpt lat="43.66711" lon="6.17262">
        <ele>632.4</ele>
        <time>2022-04-22T13:28:34Z</time>
      </trkpt>
      <trkpt lat="43.66698" lon="6.17252">
        <ele>631.3</ele>
        <time>2022-04-22T13:28:45Z</time>
      </trkpt>
      <trkpt lat="43.66687" lon="6.17247">
        <ele>631.1</ele>
        <time>2022-04-22T13:28:55Z</time>
      </trkpt>
      <trkpt lat="43.66679" lon="6.17237">
        <ele>630.9</ele>
        <time>2022-04-22T13:29:05Z</time>
      </trkpt>
      <trkpt lat="43.66667" lon="6.17233">
        <ele>630.4</ele>
        <time>2022-04-22T13:29:14Z</time>
      </trkpt>
      <trkpt lat="43.66658" lon="6.17226">
        <ele>630.1</ele>
        <time>2022-04-22T13:29:23Z</time>
      </trkpt>
      <trkpt lat="43.66648" lon="6.17225">
        <ele>630.1</ele>
        <time>2022-04-22T13:29:33Z</time>
      </trkpt>
      <trkpt lat="43.6664" lon="6.17221">
        <ele>630</ele>
        <time>2022-04-22T13:29:43Z</time>
      </trkpt>
      <trkpt lat="43.66629" lon="6.17215">
        <ele>629.7</ele>
        <time>2022-04-22T13:29:53Z</time>
      </trkpt>
      <trkpt lat="43.66619" lon="6.17213">
        <ele>629.7</ele>
        <time>2022-04-22T13:30:03Z</time>
      </trkpt>
      <trkpt lat="43.66609" lon="6.17212">
        <ele>629.7</ele>
        <time>2022-04-22T13:30:15Z</time>
      </trkpt>
      <trkpt lat="43.66598" lon="6.17207">
        <ele>629.7</ele>
        <time>2022-04-22T13:30:28Z</time>
      </trkpt>
      <trkpt lat="43.66587" lon="6.17206">
        <ele>629.9</ele>
        <time>2022-04-22T13:30:37Z</time>
      </trkpt>
      <trkpt lat="43.6658" lon="6.17201">
        <ele>630</ele>
        <time>2022-04-22T13:30:47Z</time>
      </trkpt>
      <trkpt lat="43.66569" lon="6.17196">
        <ele>630</ele>
        <time>2022-04-22T13:30:57Z</time>
      </trkpt>
      <trkpt lat="43.66557" lon="6.1719">
        <ele>630</ele>
        <time>2022-04-22T13:31:07Z</time>
      </trkpt>
      <trkpt lat="43.66548" lon="6.17187">
        <ele>629.9</ele>
        <time>2022-04-22T13:31:19Z</time>
      </trkpt>
      <trkpt lat="43.66539" lon="6.17186">
        <ele>629.8</ele>
        <time>2022-04-22T13:31:28Z</time>
      </trkpt>
      <trkpt lat="43.66525" lon="6.17182">
        <ele>629.4</ele>
        <time>2022-04-22T13:31:37Z</time>
      </trkpt>
      <trkpt lat="43.66514" lon="6.17185">
        <ele>628.8</ele>
        <time>2022-04-22T13:31:46Z</time>
      </trkpt>
      <trkpt lat="43.66504" lon="6.17187">
        <ele>628.2</ele>
        <time>2022-04-22T13:31:55Z</time>
      </trkpt>
      <trkpt lat="43.66493" lon="6.17192">
        <ele>627.8</ele>
        <time>2022-04-22T13:32:04Z</time>
      </trkpt>
      <trkpt lat="43.66482" lon="6.17193">
        <ele>627.4</ele>
        <time>2022-04-22T13:32:14Z</time>
      </trkpt>
      <trkpt lat="43.66472" lon="6.17193">
        <ele>627</ele>
        <time>2022-04-22T13:32:23Z</time>
      </trkpt>
      <trkpt lat="43.66461" lon="6.17191">
        <ele>626.6</ele>
        <time>2022-04-22T13:32:33Z</time>
      </trkpt>
      <trkpt lat="43.6645" lon="6.17189">
        <ele>626.2</ele>
        <time>2022-04-22T13:32:42Z</time>
      </trkpt>
      <trkpt lat="43.66439" lon="6.17186">
        <ele>625.8</ele>
        <time>2022-04-22T13:32:51Z</time>
      </trkpt>
      <trkpt lat="43.6643" lon="6.17183">
        <ele>625.5</ele>
        <time>2022-04-22T13:32:59Z</time>
      </trkpt>
      <trkpt lat="43.6642" lon="6.17182">
        <ele>625.1</ele>
        <time>2022-04-22T13:33:07Z</time>
      </trkpt>
      <trkpt lat="43.66411" lon="6.17181">
        <ele>624.9</ele>
        <time>2022-04-22T13:33:16Z</time>
      </trkpt>
      <trkpt lat="43.664" lon="6.1718">
        <ele>624.7</ele>
        <time>2022-04-22T13:33:25Z</time>
      </trkpt>
      <trkpt lat="43.66388" lon="6.17182">
        <ele>624.5</ele>
        <time>2022-04-22T13:33:34Z</time>
      </trkpt>
      <trkpt lat="43.66376" lon="6.17182">
        <ele>624.1</ele>
        <time>2022-04-22T13:33:43Z</time>
      </trkpt>
      <trkpt lat="43.66367" lon="6.17183">
        <ele>623.8</ele>
        <time>2022-04-22T13:33:52Z</time>
      </trkpt>
      <trkpt lat="43.66357" lon="6.17181">
        <ele>623.4</ele>
        <time>2022-04-22T13:34:00Z</time>
      </trkpt>
      <trkpt lat="43.66343" lon="6.17179">
        <ele>622.8</ele>
        <time>2022-04-22T13:34:13Z</time>
      </trkpt>
      <trkpt lat="43.66332" lon="6.17178">
        <ele>622.3</ele>
        <time>2022-04-22T13:34:23Z</time>
      </trkpt>
      <trkpt lat="43.6632" lon="6.17189">
        <ele>621.7</ele>
        <time>2022-04-22T13:34:35Z</time>
      </trkpt>
      <trkpt lat="43.66307" lon="6.17198">
        <ele>621.2</ele>
        <time>2022-04-22T13:34:45Z</time>
      </trkpt>
      <trkpt lat="43.66296" lon="6.17207">
        <ele>620.8</ele>
        <time>2022-04-22T13:34:55Z</time>
      </trkpt>
      <trkpt lat="43.66288" lon="6.17215">
        <ele>620.5</ele>
        <time>2022-04-22T13:35:04Z</time>
      </trkpt>
      <trkpt lat="43.66275" lon="6.17216">
        <ele>619.7</ele>
        <time>2022-04-22T13:35:14Z</time>
      </trkpt>
      <trkpt lat="43.66266" lon="6.17224">
        <ele>619.6</ele>
        <time>2022-04-22T13:35:23Z</time>
      </trkpt>
      <trkpt lat="43.66257" lon="6.17231">
        <ele>619.8</ele>
        <time>2022-04-22T13:35:32Z</time>
      </trkpt>
      <trkpt lat="43.66247" lon="6.17238">
        <ele>619.9</ele>
        <time>2022-04-22T13:35:41Z</time>
      </trkpt>
      <trkpt lat="43.66236" lon="6.17246">
        <ele>619.8</ele>
        <time>2022-04-22T13:35:49Z</time>
      </trkpt>
      <trkpt lat="43.66227" lon="6.17254">
        <ele>619.5</ele>
        <time>2022-04-22T13:35:59Z</time>
      </trkpt>
      <trkpt lat="43.66217" lon="6.17261">
        <ele>619.1</ele>
        <time>2022-04-22T13:36:08Z</time>
      </trkpt>
      <trkpt lat="43.66207" lon="6.17269">
        <ele>618.8</ele>
        <time>2022-04-22T13:36:17Z</time>
      </trkpt>
      <trkpt lat="43.66198" lon="6.17278">
        <ele>618.3</ele>
        <time>2022-04-22T13:36:26Z</time>
      </trkpt>
      <trkpt lat="43.66187" lon="6.17288">
        <ele>618.4</ele>
        <time>2022-04-22T13:36:38Z</time>
      </trkpt>
      <trkpt lat="43.66179" lon="6.17296">
        <ele>618.4</ele>
        <time>2022-04-22T13:36:46Z</time>
      </trkpt>
      <trkpt lat="43.66168" lon="6.17303">
        <ele>618</ele>
        <time>2022-04-22T13:36:57Z</time>
      </trkpt>
      <trkpt lat="43.66159" lon="6.17317">
        <ele>618.1</ele>
        <time>2022-04-22T13:37:06Z</time>
      </trkpt>
      <trkpt lat="43.66152" lon="6.17328">
        <ele>618.3</ele>
        <time>2022-04-22T13:37:14Z</time>
      </trkpt>
      <trkpt lat="43.66141" lon="6.17334">
        <ele>618.1</ele>
        <time>2022-04-22T13:37:23Z</time>
      </trkpt>
      <trkpt lat="43.66133" lon="6.17346">
        <ele>617.8</ele>
        <time>2022-04-22T13:37:33Z</time>
      </trkpt>
      <trkpt lat="43.66126" lon="6.17356">
        <ele>617.5</ele>
        <time>2022-04-22T13:37:42Z</time>
      </trkpt>
      <trkpt lat="43.66119" lon="6.17365">
        <ele>617.4</ele>
        <time>2022-04-22T13:37:51Z</time>
      </trkpt>
      <trkpt lat="43.66111" lon="6.17375">
        <ele>617.5</ele>
        <time>2022-04-22T13:38:00Z</time>
      </trkpt>
      <trkpt lat="43.66103" lon="6.17384">
        <ele>617.5</ele>
        <time>2022-04-22T13:38:10Z</time>
      </trkpt>
      <trkpt lat="43.66095" lon="6.17395">
        <ele>617.4</ele>
        <time>2022-04-22T13:38:18Z</time>
      </trkpt>
      <trkpt lat="43.66088" lon="6.17406">
        <ele>617.2</ele>
        <time>2022-04-22T13:38:27Z</time>
      </trkpt>
      <trkpt lat="43.6608" lon="6.17414">
        <ele>616.9</ele>
        <time>2022-04-22T13:38:36Z</time>
      </trkpt>
      <trkpt lat="43.66073" lon="6.17421">
        <ele>616.7</ele>
        <time>2022-04-22T13:38:47Z</time>
      </trkpt>
      <trkpt lat="43.66067" lon="6.17417">
        <ele>616.4</ele>
        <time>2022-04-22T13:39:17Z</time>
      </trkpt>
      <trkpt lat="43.66069" lon="6.17401">
        <ele>616.5</ele>
        <time>2022-04-22T13:39:29Z</time>
      </trkpt>
      <trkpt lat="43.66071" lon="6.17387">
        <ele>616.5</ele>
        <time>2022-04-22T13:39:39Z</time>
      </trkpt>
      <trkpt lat="43.66076" lon="6.17375">
        <ele>616.4</ele>
        <time>2022-04-22T13:39:48Z</time>
      </trkpt>
      <trkpt lat="43.66078" lon="6.17359">
        <ele>616</ele>
        <time>2022-04-22T13:39:57Z</time>
      </trkpt>
      <trkpt lat="43.66082" lon="6.17347">
        <ele>616</ele>
        <time>2022-04-22T13:40:05Z</time>
      </trkpt>
      <trkpt lat="43.66086" lon="6.17335">
        <ele>616.1</ele>
        <time>2022-04-22T13:40:13Z</time>
      </trkpt>
      <trkpt lat="43.66088" lon="6.17321">
        <ele>615.8</ele>
        <time>2022-04-22T13:40:22Z</time>
      </trkpt>
      <trkpt lat="43.66093" lon="6.17308">
        <ele>615.4</ele>
        <time>2022-04-22T13:40:31Z</time>
      </trkpt>
      <trkpt lat="43.66097" lon="6.17293">
        <ele>615.5</ele>
        <time>2022-04-22T13:40:41Z</time>
      </trkpt>
      <trkpt lat="43.661" lon="6.17276">
        <ele>615.5</ele>
        <time>2022-04-22T13:40:51Z</time>
      </trkpt>
      <trkpt lat="43.661" lon="6.1726">
        <ele>615</ele>
        <time>2022-04-22T13:41:00Z</time>
      </trkpt>
      <trkpt lat="43.66101" lon="6.17244">
        <ele>614.4</ele>
        <time>2022-04-22T13:41:09Z</time>
      </trkpt>
      <trkpt lat="43.66106" lon="6.17231">
        <ele>613.7</ele>
        <time>2022-04-22T13:41:17Z</time>
      </trkpt>
      <trkpt lat="43.66112" lon="6.17219">
        <ele>613.1</ele>
        <time>2022-04-22T13:41:25Z</time>
      </trkpt>
      <trkpt lat="43.66117" lon="6.17207">
        <ele>613.3</ele>
        <time>2022-04-22T13:41:33Z</time>
      </trkpt>
      <trkpt lat="43.66122" lon="6.17195">
        <ele>613.4</ele>
        <time>2022-04-22T13:41:41Z</time>
      </trkpt>
      <trkpt lat="43.66126" lon="6.17182">
        <ele>613.3</ele>
        <time>2022-04-22T13:41:49Z</time>
      </trkpt>
      <trkpt lat="43.66132" lon="6.17171">
        <ele>613.1</ele>
        <time>2022-04-22T13:41:57Z</time>
      </trkpt>
      <trkpt lat="43.66135" lon="6.1716">
        <ele>612.6</ele>
        <time>2022-04-22T13:42:05Z</time>
      </trkpt>
      <trkpt lat="43.66136" lon="6.17144">
        <ele>611.5</ele>
        <time>2022-04-22T13:42:17Z</time>
      </trkpt>
      <trkpt lat="43.66142" lon="6.17134">
        <ele>611.2</ele>
        <time>2022-04-22T13:42:28Z</time>
      </trkpt>
      <trkpt lat="43.66149" lon="6.17122">
        <ele>611.5</ele>
        <time>2022-04-22T13:42:38Z</time>
      </trkpt>
      <trkpt lat="43.66153" lon="6.17112">
        <ele>611.5</ele>
        <time>2022-04-22T13:42:47Z</time>
      </trkpt>
      <trkpt lat="43.66153" lon="6.17101">
        <ele>611.1</ele>
        <time>2022-04-22T13:43:12Z</time>
      </trkpt>
      <trkpt lat="43.66158" lon="6.17087">
        <ele>610.5</ele>
        <time>2022-04-22T13:43:22Z</time>
      </trkpt>
      <trkpt lat="43.66163" lon="6.17077">
        <ele>609.9</ele>
        <time>2022-04-22T13:43:31Z</time>
      </trkpt>
      <trkpt lat="43.66174" lon="6.17063">
        <ele>609.8</ele>
        <time>2022-04-22T13:43:41Z</time>
      </trkpt>
      <trkpt lat="43.66179" lon="6.17049">
        <ele>609.8</ele>
        <time>2022-04-22T13:43:51Z</time>
      </trkpt>
      <trkpt lat="43.66185" lon="6.17038">
        <ele>609.7</ele>
        <time>2022-04-22T13:44:00Z</time>
      </trkpt>
      <trkpt lat="43.66188" lon="6.17021">
        <ele>609.1</ele>
        <time>2022-04-22T13:44:10Z</time>
      </trkpt>
      <trkpt lat="43.66193" lon="6.1701">
        <ele>608.4</ele>
        <time>2022-04-22T13:44:19Z</time>
      </trkpt>
      <trkpt lat="43.66195" lon="6.16994">
        <ele>607.8</ele>
        <time>2022-04-22T13:44:28Z</time>
      </trkpt>
      <trkpt lat="43.66195" lon="6.1698">
        <ele>607.3</ele>
        <time>2022-04-22T13:44:37Z</time>
      </trkpt>
      <trkpt lat="43.66197" lon="6.16966">
        <ele>607.4</ele>
        <time>2022-04-22T13:44:46Z</time>
      </trkpt>
      <trkpt lat="43.66196" lon="6.16951">
        <ele>607.8</ele>
        <time>2022-04-22T13:44:55Z</time>
      </trkpt>
      <trkpt lat="43.66197" lon="6.16937">
        <ele>608</ele>
        <time>2022-04-22T13:45:03Z</time>
      </trkpt>
      <trkpt lat="43.66194" lon="6.16923">
        <ele>608</ele>
        <time>2022-04-22T13:45:13Z</time>
      </trkpt>
      <trkpt lat="43.66194" lon="6.1691">
        <ele>607.8</ele>
        <time>2022-04-22T13:45:21Z</time>
      </trkpt>
      <trkpt lat="43.66192" lon="6.16897">
        <ele>607.5</ele>
        <time>2022-04-22T13:45:31Z</time>
      </trkpt>
      <trkpt lat="43.66191" lon="6.16884">
        <ele>607.4</ele>
        <time>2022-04-22T13:45:39Z</time>
      </trkpt>
      <trkpt lat="43.6619" lon="6.16867">
        <ele>607.5</ele>
        <time>2022-04-22T13:45:48Z</time>
      </trkpt>
      <trkpt lat="43.66188" lon="6.16856">
        <ele>607.7</ele>
        <time>2022-04-22T13:45:55Z</time>
      </trkpt>
      <trkpt lat="43.66189" lon="6.16843">
        <ele>607.6</ele>
        <time>2022-04-22T13:46:03Z</time>
      </trkpt>
      <trkpt lat="43.6619" lon="6.1683">
        <ele>607.5</ele>
        <time>2022-04-22T13:46:11Z</time>
      </trkpt>
      <trkpt lat="43.66191" lon="6.16818">
        <ele>607.4</ele>
        <time>2022-04-22T13:46:19Z</time>
      </trkpt>
      <trkpt lat="43.66191" lon="6.16804">
        <ele>607.4</ele>
        <time>2022-04-22T13:46:27Z</time>
      </trkpt>
      <trkpt lat="43.66191" lon="6.16791">
        <ele>607.3</ele>
        <time>2022-04-22T13:46:35Z</time>
      </trkpt>
      <trkpt lat="43.66191" lon="6.16777">
        <ele>607.3</ele>
        <time>2022-04-22T13:46:43Z</time>
      </trkpt>
      <trkpt lat="43.66188" lon="6.16764">
        <ele>607.7</ele>
        <time>2022-04-22T13:46:52Z</time>
      </trkpt>
      <trkpt lat="43.66188" lon="6.1675">
        <ele>607.7</ele>
        <time>2022-04-22T13:47:01Z</time>
      </trkpt>
      <trkpt lat="43.66186" lon="6.16734">
        <ele>608.4</ele>
        <time>2022-04-22T13:47:10Z</time>
      </trkpt>
      <trkpt lat="43.66187" lon="6.1672">
        <ele>608.8</ele>
        <time>2022-04-22T13:47:18Z</time>
      </trkpt>
      <trkpt lat="43.66185" lon="6.16705">
        <ele>609</ele>
        <time>2022-04-22T13:47:27Z</time>
      </trkpt>
      <trkpt lat="43.66183" lon="6.16691">
        <ele>609.2</ele>
        <time>2022-04-22T13:47:36Z</time>
      </trkpt>
      <trkpt lat="43.66185" lon="6.16679">
        <ele>609</ele>
        <time>2022-04-22T13:47:45Z</time>
      </trkpt>
      <trkpt lat="43.66186" lon="6.16673">
        <ele>608.9</ele>
        <time>2022-04-22T13:48:55Z</time>
      </trkpt>
      <trkpt lat="43.66183" lon="6.16664">
        <ele>609.2</ele>
        <time>2022-04-22T13:49:23Z</time>
      </trkpt>
      <trkpt lat="43.66179" lon="6.16659">
        <ele>609.5</ele>
        <time>2022-04-22T13:50:11Z</time>
      </trkpt>
      <trkpt lat="43.66175" lon="6.16645">
        <ele>609.6</ele>
        <time>2022-04-22T13:50:23Z</time>
      </trkpt>
      <trkpt lat="43.6617" lon="6.16631">
        <ele>609.7</ele>
        <time>2022-04-22T13:50:32Z</time>
      </trkpt>
      <trkpt lat="43.66165" lon="6.1662">
        <ele>610.1</ele>
        <time>2022-04-22T13:50:42Z</time>
      </trkpt>
      <trkpt lat="43.66162" lon="6.16606">
        <ele>610.2</ele>
        <time>2022-04-22T13:50:51Z</time>
      </trkpt>
      <trkpt lat="43.66155" lon="6.16591">
        <ele>609.8</ele>
        <time>2022-04-22T13:51:01Z</time>
      </trkpt>
      <trkpt lat="43.6615" lon="6.16578">
        <ele>609.5</ele>
        <time>2022-04-22T13:51:10Z</time>
      </trkpt>
      <trkpt lat="43.66143" lon="6.16565">
        <ele>609.7</ele>
        <time>2022-04-22T13:51:20Z</time>
      </trkpt>
      <trkpt lat="43.66138" lon="6.16553">
        <ele>609.9</ele>
        <time>2022-04-22T13:51:31Z</time>
      </trkpt>
      <trkpt lat="43.66133" lon="6.16541">
        <ele>609.7</ele>
        <time>2022-04-22T13:51:54Z</time>
      </trkpt>
      <trkpt lat="43.66128" lon="6.16526">
        <ele>609.3</ele>
        <time>2022-04-22T13:52:04Z</time>
      </trkpt>
      <trkpt lat="43.66124" lon="6.16513">
        <ele>608.8</ele>
        <time>2022-04-22T13:52:14Z</time>
      </trkpt>
      <trkpt lat="43.6612" lon="6.16497">
        <ele>608.2</ele>
        <time>2022-04-22T13:52:23Z</time>
      </trkpt>
      <trkpt lat="43.66117" lon="6.1648">
        <ele>607.3</ele>
        <time>2022-04-22T13:52:32Z</time>
      </trkpt>
      <trkpt lat="43.66113" lon="6.16465">
        <ele>606.7</ele>
        <time>2022-04-22T13:52:40Z</time>
      </trkpt>
      <trkpt lat="43.66112" lon="6.16453">
        <ele>606.3</ele>
        <time>2022-04-22T13:52:48Z</time>
      </trkpt>
      <trkpt lat="43.66109" lon="6.16439">
        <ele>605.6</ele>
        <time>2022-04-22T13:52:57Z</time>
      </trkpt>
      <trkpt lat="43.66107" lon="6.16425">
        <ele>604.6</ele>
        <time>2022-04-22T13:53:05Z</time>
      </trkpt>
      <trkpt lat="43.661" lon="6.16415">
        <ele>603.9</ele>
        <time>2022-04-22T13:53:13Z</time>
      </trkpt>
      <trkpt lat="43.66093" lon="6.16409">
        <ele>603.5</ele>
        <time>2022-04-22T13:53:20Z</time>
      </trkpt>
      <trkpt lat="43.66085" lon="6.16405">
        <ele>603.2</ele>
        <time>2022-04-22T13:53:28Z</time>
      </trkpt>
      <trkpt lat="43.66075" lon="6.16404">
        <ele>602.9</ele>
        <time>2022-04-22T13:53:37Z</time>
      </trkpt>
      <trkpt lat="43.66064" lon="6.16406">
        <ele>602.8</ele>
        <time>2022-04-22T13:53:45Z</time>
      </trkpt>
      <trkpt lat="43.66055" lon="6.16414">
        <ele>602.9</ele>
        <time>2022-04-22T13:53:53Z</time>
      </trkpt>
      <trkpt lat="43.66046" lon="6.16423">
        <ele>602.2</ele>
        <time>2022-04-22T13:54:02Z</time>
      </trkpt>
      <trkpt lat="43.66038" lon="6.16428">
        <ele>601.8</ele>
        <time>2022-04-22T13:54:11Z</time>
      </trkpt>
      <trkpt lat="43.66028" lon="6.16428">
        <ele>600.8</ele>
        <time>2022-04-22T13:54:21Z</time>
      </trkpt>
      <trkpt lat="43.66017" lon="6.16423">
        <ele>600.6</ele>
        <time>2022-04-22T13:54:32Z</time>
      </trkpt>
      <trkpt lat="43.66013" lon="6.16412">
        <ele>599.6</ele>
        <time>2022-04-22T13:54:42Z</time>
      </trkpt>
      <trkpt lat="43.66008" lon="6.16401">
        <ele>598.6</ele>
        <time>2022-04-22T13:54:52Z</time>
      </trkpt>
      <trkpt lat="43.66003" lon="6.16387">
        <ele>597.1</ele>
        <time>2022-04-22T13:55:02Z</time>
      </trkpt>
      <trkpt lat="43.65997" lon="6.16374">
        <ele>596</ele>
        <time>2022-04-22T13:55:12Z</time>
      </trkpt>
      <trkpt lat="43.65987" lon="6.16361">
        <ele>595</ele>
        <time>2022-04-22T13:55:22Z</time>
      </trkpt>
      <trkpt lat="43.65978" lon="6.16357">
        <ele>594.5</ele>
        <time>2022-04-22T13:55:31Z</time>
      </trkpt>
      <trkpt lat="43.65968" lon="6.16353">
        <ele>594</ele>
        <time>2022-04-22T13:55:40Z</time>
      </trkpt>
      <trkpt lat="43.65958" lon="6.16348">
        <ele>593.9</ele>
        <time>2022-04-22T13:55:50Z</time>
      </trkpt>
      <trkpt lat="43.65948" lon="6.16342">
        <ele>593.8</ele>
        <time>2022-04-22T13:56:00Z</time>
      </trkpt>
      <trkpt lat="43.65935" lon="6.16336">
        <ele>593.6</ele>
        <time>2022-04-22T13:56:10Z</time>
      </trkpt>
      <trkpt lat="43.65926" lon="6.16332">
        <ele>593.5</ele>
        <time>2022-04-22T13:56:18Z</time>
      </trkpt>
      <trkpt lat="43.65917" lon="6.1633">
        <ele>593.7</ele>
        <time>2022-04-22T13:56:27Z</time>
      </trkpt>
      <trkpt lat="43.65906" lon="6.16323">
        <ele>592.9</ele>
        <time>2022-04-22T13:56:37Z</time>
      </trkpt>
      <trkpt lat="43.65895" lon="6.16322">
        <ele>592.4</ele>
        <time>2022-04-22T13:56:47Z</time>
      </trkpt>
      <trkpt lat="43.65885" lon="6.16318">
        <ele>591.8</ele>
        <time>2022-04-22T13:56:56Z</time>
      </trkpt>
      <trkpt lat="43.65871" lon="6.16313">
        <ele>590.9</ele>
        <time>2022-04-22T13:57:08Z</time>
      </trkpt>
      <trkpt lat="43.65862" lon="6.16309">
        <ele>590.2</ele>
        <time>2022-04-22T13:57:17Z</time>
      </trkpt>
      <trkpt lat="43.65853" lon="6.16309">
        <ele>590.5</ele>
        <time>2022-04-22T13:57:29Z</time>
      </trkpt>
      <trkpt lat="43.65841" lon="6.16304">
        <ele>590.6</ele>
        <time>2022-04-22T13:57:41Z</time>
      </trkpt>
      <trkpt lat="43.65837" lon="6.16307">
        <ele>590.9</ele>
        <time>2022-04-22T14:10:44Z</time>
      </trkpt>
      <trkpt lat="43.65824" lon="6.16305">
        <ele>591.3</ele>
        <time>2022-04-22T14:10:57Z</time>
      </trkpt>
      <trkpt lat="43.65808" lon="6.163">
        <ele>591.7</ele>
        <time>2022-04-22T14:11:07Z</time>
      </trkpt>
      <trkpt lat="43.65797" lon="6.16296">
        <ele>591.6</ele>
        <time>2022-04-22T14:11:15Z</time>
      </trkpt>
      <trkpt lat="43.65786" lon="6.16293">
        <ele>591.5</ele>
        <time>2022-04-22T14:11:24Z</time>
      </trkpt>
      <trkpt lat="43.65775" lon="6.16291">
        <ele>591.5</ele>
        <time>2022-04-22T14:11:33Z</time>
      </trkpt>
      <trkpt lat="43.65762" lon="6.16287">
        <ele>591.3</ele>
        <time>2022-04-22T14:11:43Z</time>
      </trkpt>
      <trkpt lat="43.65745" lon="6.16283">
        <ele>591</ele>
        <time>2022-04-22T14:11:56Z</time>
      </trkpt>
      <trkpt lat="43.65732" lon="6.16278">
        <ele>590.4</ele>
        <time>2022-04-22T14:12:07Z</time>
      </trkpt>
      <trkpt lat="43.65719" lon="6.16274">
        <ele>589.7</ele>
        <time>2022-04-22T14:12:17Z</time>
      </trkpt>
      <trkpt lat="43.65705" lon="6.16271">
        <ele>589.1</ele>
        <time>2022-04-22T14:12:26Z</time>
      </trkpt>
      <trkpt lat="43.65693" lon="6.16274">
        <ele>588.7</ele>
        <time>2022-04-22T14:12:39Z</time>
      </trkpt>
      <trkpt lat="43.6568" lon="6.16269">
        <ele>587.8</ele>
        <time>2022-04-22T14:12:49Z</time>
      </trkpt>
      <trkpt lat="43.65666" lon="6.16266">
        <ele>587</ele>
        <time>2022-04-22T14:12:59Z</time>
      </trkpt>
      <trkpt lat="43.65654" lon="6.1626">
        <ele>586.6</ele>
        <time>2022-04-22T14:13:10Z</time>
      </trkpt>
      <trkpt lat="43.65643" lon="6.16254">
        <ele>586.2</ele>
        <time>2022-04-22T14:13:19Z</time>
      </trkpt>
      <trkpt lat="43.65638" lon="6.16243">
        <ele>586</ele>
        <time>2022-04-22T14:13:27Z</time>
      </trkpt>
      <trkpt lat="43.6563" lon="6.16234">
        <ele>585.5</ele>
        <time>2022-04-22T14:13:37Z</time>
      </trkpt>
      <trkpt lat="43.65618" lon="6.16233">
        <ele>585</ele>
        <time>2022-04-22T14:13:45Z</time>
      </trkpt>
      <trkpt lat="43.65611" lon="6.16238">
        <ele>584.4</ele>
        <time>2022-04-22T14:13:54Z</time>
      </trkpt>
      <trkpt lat="43.65602" lon="6.16238">
        <ele>584.3</ele>
        <time>2022-04-22T14:14:03Z</time>
      </trkpt>
      <trkpt lat="43.65596" lon="6.16236">
        <ele>584.2</ele>
        <time>2022-04-22T14:14:08Z</time>
      </trkpt>
    </trkseg>
  </trk>
</gpx>